<?xml version="1.0" encoding="UTF-8" standalone="no" ?>
<gpx xmlns="http://www.topografix.com/GPX/1/1" xmlns:xsi="http://www.w3.org/2001/XMLSchema-instance" xsi:schemaLocation="http://www.topografix.com/GPX/1/1 http://www.topografix.com/GPX/1/1/gpx.xsd" version="1.1" creator="VisuGPX - https://www.visugpx.com">
  <metadata>
    <name>Roquebrune autour du Rocher 2018-09-26-01</name>
  </metadata>
  <trk>
    <name><![CDATA[Roquebrune autour du Rocher 2018-09-26-01]]></name>
    <trkseg>
      <trkpt lat="43.45071" lon="6.61696">
        <ele>1.1</ele>
        <time>2018-09-26T12:17:32Z</time>
      </trkpt>
      <trkpt lat="43.45071" lon="6.61696">
        <ele>1.1</ele>
        <time>2018-09-26T12:17:33Z</time>
      </trkpt>
      <trkpt lat="43.45071" lon="6.61683">
        <ele>3.3</ele>
        <time>2018-09-26T12:18:05Z</time>
      </trkpt>
      <trkpt lat="43.45073" lon="6.61671">
        <ele>3.3</ele>
        <time>2018-09-26T12:18:41Z</time>
      </trkpt>
      <trkpt lat="43.45069" lon="6.61659">
        <ele>3</ele>
        <time>2018-09-26T12:18:54Z</time>
      </trkpt>
      <trkpt lat="43.4507" lon="6.61645">
        <ele>2.9</ele>
        <time>2018-09-26T12:19:02Z</time>
      </trkpt>
      <trkpt lat="43.45068" lon="6.61633">
        <ele>3</ele>
        <time>2018-09-26T12:19:13Z</time>
      </trkpt>
      <trkpt lat="43.45062" lon="6.61622">
        <ele>2.2</ele>
        <time>2018-09-26T12:19:24Z</time>
      </trkpt>
      <trkpt lat="43.45056" lon="6.61611">
        <ele>2.4</ele>
        <time>2018-09-26T12:19:32Z</time>
      </trkpt>
      <trkpt lat="43.45048" lon="6.61603">
        <ele>1.8</ele>
        <time>2018-09-26T12:19:40Z</time>
      </trkpt>
      <trkpt lat="43.45048" lon="6.6159">
        <ele>1.6</ele>
        <time>2018-09-26T12:19:56Z</time>
      </trkpt>
      <trkpt lat="43.45046" lon="6.61577">
        <ele>2</ele>
        <time>2018-09-26T12:20:07Z</time>
      </trkpt>
      <trkpt lat="43.45046" lon="6.61564">
        <ele>2</ele>
        <time>2018-09-26T12:20:14Z</time>
      </trkpt>
      <trkpt lat="43.45049" lon="6.61551">
        <ele>2.2</ele>
        <time>2018-09-26T12:20:20Z</time>
      </trkpt>
      <trkpt lat="43.45052" lon="6.6154">
        <ele>1.7</ele>
        <time>2018-09-26T12:20:30Z</time>
      </trkpt>
      <trkpt lat="43.45061" lon="6.61534">
        <ele>1.8</ele>
        <time>2018-09-26T12:20:41Z</time>
      </trkpt>
      <trkpt lat="43.45071" lon="6.61531">
        <ele>2.5</ele>
        <time>2018-09-26T12:20:52Z</time>
      </trkpt>
      <trkpt lat="43.4508" lon="6.61531">
        <ele>2.9</ele>
        <time>2018-09-26T12:21:04Z</time>
      </trkpt>
      <trkpt lat="43.45089" lon="6.61533">
        <ele>3.9</ele>
        <time>2018-09-26T12:21:14Z</time>
      </trkpt>
      <trkpt lat="43.45099" lon="6.61535">
        <ele>4.1</ele>
        <time>2018-09-26T12:21:20Z</time>
      </trkpt>
      <trkpt lat="43.45108" lon="6.61534">
        <ele>3.7</ele>
        <time>2018-09-26T12:21:27Z</time>
      </trkpt>
      <trkpt lat="43.45119" lon="6.61528">
        <ele>2.7</ele>
        <time>2018-09-26T12:21:35Z</time>
      </trkpt>
      <trkpt lat="43.45126" lon="6.6152">
        <ele>2.6</ele>
        <time>2018-09-26T12:21:42Z</time>
      </trkpt>
      <trkpt lat="43.45135" lon="6.61513">
        <ele>2.9</ele>
        <time>2018-09-26T12:21:50Z</time>
      </trkpt>
      <trkpt lat="43.45145" lon="6.61512">
        <ele>3.1</ele>
        <time>2018-09-26T12:21:57Z</time>
      </trkpt>
      <trkpt lat="43.45154" lon="6.61508">
        <ele>2.2</ele>
        <time>2018-09-26T12:22:07Z</time>
      </trkpt>
      <trkpt lat="43.45163" lon="6.61509">
        <ele>2.6</ele>
        <time>2018-09-26T12:22:14Z</time>
      </trkpt>
      <trkpt lat="43.45173" lon="6.61508">
        <ele>1.6</ele>
        <time>2018-09-26T12:22:22Z</time>
      </trkpt>
      <trkpt lat="43.45181" lon="6.61502">
        <ele>2</ele>
        <time>2018-09-26T12:22:29Z</time>
      </trkpt>
      <trkpt lat="43.4519" lon="6.61496">
        <ele>1.7</ele>
        <time>2018-09-26T12:22:38Z</time>
      </trkpt>
      <trkpt lat="43.45199" lon="6.61492">
        <ele>2</ele>
        <time>2018-09-26T12:22:47Z</time>
      </trkpt>
      <trkpt lat="43.45207" lon="6.61485">
        <ele>2.3</ele>
        <time>2018-09-26T12:22:54Z</time>
      </trkpt>
      <trkpt lat="43.45215" lon="6.6148">
        <ele>1.9</ele>
        <time>2018-09-26T12:23:01Z</time>
      </trkpt>
      <trkpt lat="43.45224" lon="6.61474">
        <ele>2.3</ele>
        <time>2018-09-26T12:23:09Z</time>
      </trkpt>
      <trkpt lat="43.45231" lon="6.61466">
        <ele>3.1</ele>
        <time>2018-09-26T12:23:19Z</time>
      </trkpt>
      <trkpt lat="43.45237" lon="6.61453">
        <ele>3.3</ele>
        <time>2018-09-26T12:23:26Z</time>
      </trkpt>
      <trkpt lat="43.4524" lon="6.61441">
        <ele>3.4</ele>
        <time>2018-09-26T12:23:33Z</time>
      </trkpt>
      <trkpt lat="43.45241" lon="6.61429">
        <ele>3.1</ele>
        <time>2018-09-26T12:23:41Z</time>
      </trkpt>
      <trkpt lat="43.45243" lon="6.61415">
        <ele>3.4</ele>
        <time>2018-09-26T12:23:49Z</time>
      </trkpt>
      <trkpt lat="43.45247" lon="6.61403">
        <ele>3</ele>
        <time>2018-09-26T12:23:56Z</time>
      </trkpt>
      <trkpt lat="43.45254" lon="6.61393">
        <ele>2.9</ele>
        <time>2018-09-26T12:24:04Z</time>
      </trkpt>
      <trkpt lat="43.45263" lon="6.61387">
        <ele>3.3</ele>
        <time>2018-09-26T12:24:12Z</time>
      </trkpt>
      <trkpt lat="43.45272" lon="6.61383">
        <ele>3.6</ele>
        <time>2018-09-26T12:24:20Z</time>
      </trkpt>
      <trkpt lat="43.45279" lon="6.61375">
        <ele>2.9</ele>
        <time>2018-09-26T12:24:28Z</time>
      </trkpt>
      <trkpt lat="43.45284" lon="6.61364">
        <ele>2.7</ele>
        <time>2018-09-26T12:24:39Z</time>
      </trkpt>
      <trkpt lat="43.45288" lon="6.61353">
        <ele>2.5</ele>
        <time>2018-09-26T12:24:47Z</time>
      </trkpt>
      <trkpt lat="43.45294" lon="6.61342">
        <ele>2.8</ele>
        <time>2018-09-26T12:24:55Z</time>
      </trkpt>
      <trkpt lat="43.453" lon="6.61333">
        <ele>2.3</ele>
        <time>2018-09-26T12:25:04Z</time>
      </trkpt>
      <trkpt lat="43.45306" lon="6.61322">
        <ele>2.5</ele>
        <time>2018-09-26T12:25:12Z</time>
      </trkpt>
      <trkpt lat="43.45313" lon="6.61312">
        <ele>2.3</ele>
        <time>2018-09-26T12:25:21Z</time>
      </trkpt>
      <trkpt lat="43.4532" lon="6.61303">
        <ele>2.2</ele>
        <time>2018-09-26T12:25:28Z</time>
      </trkpt>
      <trkpt lat="43.4533" lon="6.613">
        <ele>2</ele>
        <time>2018-09-26T12:25:38Z</time>
      </trkpt>
      <trkpt lat="43.4534" lon="6.61299">
        <ele>1.8</ele>
        <time>2018-09-26T12:25:47Z</time>
      </trkpt>
      <trkpt lat="43.45349" lon="6.61302">
        <ele>2.3</ele>
        <time>2018-09-26T12:25:55Z</time>
      </trkpt>
      <trkpt lat="43.45359" lon="6.61304">
        <ele>1.2</ele>
        <time>2018-09-26T12:26:02Z</time>
      </trkpt>
      <trkpt lat="43.45368" lon="6.61306">
        <ele>1.2</ele>
        <time>2018-09-26T12:26:11Z</time>
      </trkpt>
      <trkpt lat="43.45377" lon="6.61302">
        <ele>1.1</ele>
        <time>2018-09-26T12:26:19Z</time>
      </trkpt>
      <trkpt lat="43.45386" lon="6.61297">
        <ele>1.7</ele>
        <time>2018-09-26T12:26:27Z</time>
      </trkpt>
      <trkpt lat="43.45392" lon="6.61286">
        <ele>2.1</ele>
        <time>2018-09-26T12:26:35Z</time>
      </trkpt>
      <trkpt lat="43.45396" lon="6.61275">
        <ele>2.6</ele>
        <time>2018-09-26T12:26:43Z</time>
      </trkpt>
      <trkpt lat="43.45399" lon="6.61262">
        <ele>2.4</ele>
        <time>2018-09-26T12:26:50Z</time>
      </trkpt>
      <trkpt lat="43.45399" lon="6.61248">
        <ele>1.7</ele>
        <time>2018-09-26T12:26:58Z</time>
      </trkpt>
      <trkpt lat="43.45399" lon="6.61235">
        <ele>1.8</ele>
        <time>2018-09-26T12:27:06Z</time>
      </trkpt>
      <trkpt lat="43.454" lon="6.61222">
        <ele>2</ele>
        <time>2018-09-26T12:27:14Z</time>
      </trkpt>
      <trkpt lat="43.45402" lon="6.6121">
        <ele>2</ele>
        <time>2018-09-26T12:27:21Z</time>
      </trkpt>
      <trkpt lat="43.45408" lon="6.61199">
        <ele>2.8</ele>
        <time>2018-09-26T12:27:30Z</time>
      </trkpt>
      <trkpt lat="43.45416" lon="6.61194">
        <ele>2.5</ele>
        <time>2018-09-26T12:27:38Z</time>
      </trkpt>
      <trkpt lat="43.45426" lon="6.61197">
        <ele>2.9</ele>
        <time>2018-09-26T12:27:48Z</time>
      </trkpt>
      <trkpt lat="43.45436" lon="6.61198">
        <ele>3.2</ele>
        <time>2018-09-26T12:27:56Z</time>
      </trkpt>
      <trkpt lat="43.45446" lon="6.612">
        <ele>3.1</ele>
        <time>2018-09-26T12:28:04Z</time>
      </trkpt>
      <trkpt lat="43.45456" lon="6.612">
        <ele>2.8</ele>
        <time>2018-09-26T12:28:11Z</time>
      </trkpt>
      <trkpt lat="43.45465" lon="6.612">
        <ele>3.1</ele>
        <time>2018-09-26T12:28:19Z</time>
      </trkpt>
      <trkpt lat="43.45475" lon="6.61199">
        <ele>3.2</ele>
        <time>2018-09-26T12:28:29Z</time>
      </trkpt>
      <trkpt lat="43.45484" lon="6.61201">
        <ele>2.7</ele>
        <time>2018-09-26T12:28:37Z</time>
      </trkpt>
      <trkpt lat="43.45493" lon="6.61204">
        <ele>2.3</ele>
        <time>2018-09-26T12:28:45Z</time>
      </trkpt>
      <trkpt lat="43.45502" lon="6.61205">
        <ele>3.6</ele>
        <time>2018-09-26T12:28:53Z</time>
      </trkpt>
      <trkpt lat="43.45511" lon="6.61205">
        <ele>3.7</ele>
        <time>2018-09-26T12:29:02Z</time>
      </trkpt>
      <trkpt lat="43.45521" lon="6.61205">
        <ele>2.1</ele>
        <time>2018-09-26T12:29:12Z</time>
      </trkpt>
      <trkpt lat="43.4553" lon="6.61203">
        <ele>3</ele>
        <time>2018-09-26T12:29:22Z</time>
      </trkpt>
      <trkpt lat="43.4554" lon="6.61206">
        <ele>3.3</ele>
        <time>2018-09-26T12:29:31Z</time>
      </trkpt>
      <trkpt lat="43.45549" lon="6.61202">
        <ele>2.9</ele>
        <time>2018-09-26T12:29:38Z</time>
      </trkpt>
      <trkpt lat="43.45557" lon="6.61197">
        <ele>4</ele>
        <time>2018-09-26T12:29:48Z</time>
      </trkpt>
      <trkpt lat="43.45567" lon="6.61195">
        <ele>3.8</ele>
        <time>2018-09-26T12:29:57Z</time>
      </trkpt>
      <trkpt lat="43.45575" lon="6.61189">
        <ele>3.7</ele>
        <time>2018-09-26T12:30:05Z</time>
      </trkpt>
      <trkpt lat="43.45583" lon="6.61182">
        <ele>3.6</ele>
        <time>2018-09-26T12:30:14Z</time>
      </trkpt>
      <trkpt lat="43.45588" lon="6.61172">
        <ele>4</ele>
        <time>2018-09-26T12:30:22Z</time>
      </trkpt>
      <trkpt lat="43.45593" lon="6.61161">
        <ele>3.8</ele>
        <time>2018-09-26T12:30:29Z</time>
      </trkpt>
      <trkpt lat="43.45601" lon="6.61153">
        <ele>3.9</ele>
        <time>2018-09-26T12:30:37Z</time>
      </trkpt>
      <trkpt lat="43.45607" lon="6.61142">
        <ele>3.4</ele>
        <time>2018-09-26T12:30:44Z</time>
      </trkpt>
      <trkpt lat="43.45614" lon="6.61134">
        <ele>4</ele>
        <time>2018-09-26T12:30:53Z</time>
      </trkpt>
      <trkpt lat="43.4562" lon="6.61124">
        <ele>4.3</ele>
        <time>2018-09-26T12:30:59Z</time>
      </trkpt>
      <trkpt lat="43.45627" lon="6.61115">
        <ele>4.2</ele>
        <time>2018-09-26T12:31:07Z</time>
      </trkpt>
      <trkpt lat="43.45634" lon="6.61106">
        <ele>4.3</ele>
        <time>2018-09-26T12:31:14Z</time>
      </trkpt>
      <trkpt lat="43.45642" lon="6.611">
        <ele>4.2</ele>
        <time>2018-09-26T12:31:22Z</time>
      </trkpt>
      <trkpt lat="43.4565" lon="6.6109">
        <ele>4.5</ele>
        <time>2018-09-26T12:31:30Z</time>
      </trkpt>
      <trkpt lat="43.45659" lon="6.61086">
        <ele>4.3</ele>
        <time>2018-09-26T12:31:38Z</time>
      </trkpt>
      <trkpt lat="43.45668" lon="6.61084">
        <ele>4.7</ele>
        <time>2018-09-26T12:31:45Z</time>
      </trkpt>
      <trkpt lat="43.45678" lon="6.6108">
        <ele>4.5</ele>
        <time>2018-09-26T12:31:53Z</time>
      </trkpt>
      <trkpt lat="43.45687" lon="6.6108">
        <ele>4.6</ele>
        <time>2018-09-26T12:32:01Z</time>
      </trkpt>
      <trkpt lat="43.45696" lon="6.61082">
        <ele>4.5</ele>
        <time>2018-09-26T12:32:08Z</time>
      </trkpt>
      <trkpt lat="43.45706" lon="6.61082">
        <ele>4.1</ele>
        <time>2018-09-26T12:32:16Z</time>
      </trkpt>
      <trkpt lat="43.45716" lon="6.6108">
        <ele>4.7</ele>
        <time>2018-09-26T12:32:24Z</time>
      </trkpt>
      <trkpt lat="43.45725" lon="6.61078">
        <ele>5</ele>
        <time>2018-09-26T12:32:32Z</time>
      </trkpt>
      <trkpt lat="43.45735" lon="6.61072">
        <ele>4.9</ele>
        <time>2018-09-26T12:32:41Z</time>
      </trkpt>
      <trkpt lat="43.45743" lon="6.61066">
        <ele>5.3</ele>
        <time>2018-09-26T12:32:49Z</time>
      </trkpt>
      <trkpt lat="43.45751" lon="6.61059">
        <ele>5.7</ele>
        <time>2018-09-26T12:32:56Z</time>
      </trkpt>
      <trkpt lat="43.45758" lon="6.61051">
        <ele>5.3</ele>
        <time>2018-09-26T12:33:03Z</time>
      </trkpt>
      <trkpt lat="43.45765" lon="6.61041">
        <ele>5.2</ele>
        <time>2018-09-26T12:33:11Z</time>
      </trkpt>
      <trkpt lat="43.45772" lon="6.61034">
        <ele>5.6</ele>
        <time>2018-09-26T12:33:19Z</time>
      </trkpt>
      <trkpt lat="43.4578" lon="6.61028">
        <ele>5.2</ele>
        <time>2018-09-26T12:33:30Z</time>
      </trkpt>
      <trkpt lat="43.45789" lon="6.61021">
        <ele>5.6</ele>
        <time>2018-09-26T12:33:39Z</time>
      </trkpt>
      <trkpt lat="43.45796" lon="6.61013">
        <ele>5.6</ele>
        <time>2018-09-26T12:33:44Z</time>
      </trkpt>
      <trkpt lat="43.45805" lon="6.6101">
        <ele>5.8</ele>
        <time>2018-09-26T12:33:52Z</time>
      </trkpt>
      <trkpt lat="43.45815" lon="6.6101">
        <ele>6.6</ele>
        <time>2018-09-26T12:34:00Z</time>
      </trkpt>
      <trkpt lat="43.45824" lon="6.61012">
        <ele>5.8</ele>
        <time>2018-09-26T12:34:08Z</time>
      </trkpt>
      <trkpt lat="43.45833" lon="6.61013">
        <ele>6.8</ele>
        <time>2018-09-26T12:34:16Z</time>
      </trkpt>
      <trkpt lat="43.45843" lon="6.61017">
        <ele>8.6</ele>
        <time>2018-09-26T12:34:27Z</time>
      </trkpt>
      <trkpt lat="43.45852" lon="6.61019">
        <ele>9.5</ele>
        <time>2018-09-26T12:34:35Z</time>
      </trkpt>
      <trkpt lat="43.45861" lon="6.6102">
        <ele>10.1</ele>
        <time>2018-09-26T12:34:43Z</time>
      </trkpt>
      <trkpt lat="43.4587" lon="6.61017">
        <ele>9.5</ele>
        <time>2018-09-26T12:34:51Z</time>
      </trkpt>
      <trkpt lat="43.45879" lon="6.61013">
        <ele>10.7</ele>
        <time>2018-09-26T12:35:00Z</time>
      </trkpt>
      <trkpt lat="43.45888" lon="6.6101">
        <ele>11.7</ele>
        <time>2018-09-26T12:35:12Z</time>
      </trkpt>
      <trkpt lat="43.45897" lon="6.61007">
        <ele>12.3</ele>
        <time>2018-09-26T12:35:22Z</time>
      </trkpt>
      <trkpt lat="43.45906" lon="6.61003">
        <ele>12.6</ele>
        <time>2018-09-26T12:35:32Z</time>
      </trkpt>
      <trkpt lat="43.45915" lon="6.61">
        <ele>13.5</ele>
        <time>2018-09-26T12:35:41Z</time>
      </trkpt>
      <trkpt lat="43.45924" lon="6.60994">
        <ele>14.3</ele>
        <time>2018-09-26T12:35:50Z</time>
      </trkpt>
      <trkpt lat="43.45933" lon="6.60989">
        <ele>15</ele>
        <time>2018-09-26T12:35:58Z</time>
      </trkpt>
      <trkpt lat="43.4594" lon="6.60981">
        <ele>15</ele>
        <time>2018-09-26T12:36:06Z</time>
      </trkpt>
      <trkpt lat="43.45942" lon="6.60967">
        <ele>15.1</ele>
        <time>2018-09-26T12:36:13Z</time>
      </trkpt>
      <trkpt lat="43.45941" lon="6.60954">
        <ele>14.8</ele>
        <time>2018-09-26T12:36:21Z</time>
      </trkpt>
      <trkpt lat="43.45941" lon="6.60941">
        <ele>14.7</ele>
        <time>2018-09-26T12:36:28Z</time>
      </trkpt>
      <trkpt lat="43.4594" lon="6.60928">
        <ele>13.4</ele>
        <time>2018-09-26T12:36:36Z</time>
      </trkpt>
      <trkpt lat="43.45937" lon="6.60915">
        <ele>13</ele>
        <time>2018-09-26T12:36:45Z</time>
      </trkpt>
      <trkpt lat="43.45933" lon="6.60902">
        <ele>12.5</ele>
        <time>2018-09-26T12:36:54Z</time>
      </trkpt>
      <trkpt lat="43.4593" lon="6.60888">
        <ele>12.1</ele>
        <time>2018-09-26T12:37:02Z</time>
      </trkpt>
      <trkpt lat="43.45926" lon="6.60877">
        <ele>11.8</ele>
        <time>2018-09-26T12:37:10Z</time>
      </trkpt>
      <trkpt lat="43.45922" lon="6.60865">
        <ele>11</ele>
        <time>2018-09-26T12:37:20Z</time>
      </trkpt>
      <trkpt lat="43.45919" lon="6.60853">
        <ele>10.8</ele>
        <time>2018-09-26T12:37:27Z</time>
      </trkpt>
      <trkpt lat="43.45916" lon="6.60839">
        <ele>10.6</ele>
        <time>2018-09-26T12:37:36Z</time>
      </trkpt>
      <trkpt lat="43.45915" lon="6.60825">
        <ele>10.7</ele>
        <time>2018-09-26T12:37:44Z</time>
      </trkpt>
      <trkpt lat="43.45913" lon="6.60812">
        <ele>11.5</ele>
        <time>2018-09-26T12:37:51Z</time>
      </trkpt>
      <trkpt lat="43.45911" lon="6.608">
        <ele>10.8</ele>
        <time>2018-09-26T12:37:58Z</time>
      </trkpt>
      <trkpt lat="43.45909" lon="6.60787">
        <ele>10.3</ele>
        <time>2018-09-26T12:38:06Z</time>
      </trkpt>
      <trkpt lat="43.45904" lon="6.60776">
        <ele>10.6</ele>
        <time>2018-09-26T12:38:14Z</time>
      </trkpt>
      <trkpt lat="43.45899" lon="6.60764">
        <ele>10.8</ele>
        <time>2018-09-26T12:38:22Z</time>
      </trkpt>
      <trkpt lat="43.45895" lon="6.60752">
        <ele>11.4</ele>
        <time>2018-09-26T12:38:30Z</time>
      </trkpt>
      <trkpt lat="43.4589" lon="6.60739">
        <ele>11.9</ele>
        <time>2018-09-26T12:38:39Z</time>
      </trkpt>
      <trkpt lat="43.45889" lon="6.60726">
        <ele>12.3</ele>
        <time>2018-09-26T12:38:45Z</time>
      </trkpt>
      <trkpt lat="43.45886" lon="6.60714">
        <ele>12.7</ele>
        <time>2018-09-26T12:38:51Z</time>
      </trkpt>
      <trkpt lat="43.45883" lon="6.60702">
        <ele>12.4</ele>
        <time>2018-09-26T12:38:58Z</time>
      </trkpt>
      <trkpt lat="43.4588" lon="6.60689">
        <ele>12.6</ele>
        <time>2018-09-26T12:39:06Z</time>
      </trkpt>
      <trkpt lat="43.45878" lon="6.60676">
        <ele>12.9</ele>
        <time>2018-09-26T12:39:14Z</time>
      </trkpt>
      <trkpt lat="43.45877" lon="6.60664">
        <ele>12.6</ele>
        <time>2018-09-26T12:39:22Z</time>
      </trkpt>
      <trkpt lat="43.45873" lon="6.60651">
        <ele>12.8</ele>
        <time>2018-09-26T12:39:32Z</time>
      </trkpt>
      <trkpt lat="43.45873" lon="6.60638">
        <ele>12.7</ele>
        <time>2018-09-26T12:39:40Z</time>
      </trkpt>
      <trkpt lat="43.45872" lon="6.60624">
        <ele>13.1</ele>
        <time>2018-09-26T12:39:47Z</time>
      </trkpt>
      <trkpt lat="43.45871" lon="6.60611">
        <ele>12.3</ele>
        <time>2018-09-26T12:39:54Z</time>
      </trkpt>
      <trkpt lat="43.4587" lon="6.60599">
        <ele>11.6</ele>
        <time>2018-09-26T12:40:02Z</time>
      </trkpt>
      <trkpt lat="43.45868" lon="6.60586">
        <ele>11.8</ele>
        <time>2018-09-26T12:40:10Z</time>
      </trkpt>
      <trkpt lat="43.45865" lon="6.60573">
        <ele>11.4</ele>
        <time>2018-09-26T12:40:18Z</time>
      </trkpt>
      <trkpt lat="43.45862" lon="6.60561">
        <ele>11.1</ele>
        <time>2018-09-26T12:40:26Z</time>
      </trkpt>
      <trkpt lat="43.4586" lon="6.60547">
        <ele>11.2</ele>
        <time>2018-09-26T12:40:36Z</time>
      </trkpt>
      <trkpt lat="43.4586" lon="6.60534">
        <ele>11.4</ele>
        <time>2018-09-26T12:40:44Z</time>
      </trkpt>
      <trkpt lat="43.45859" lon="6.60522">
        <ele>10.9</ele>
        <time>2018-09-26T12:40:51Z</time>
      </trkpt>
      <trkpt lat="43.45857" lon="6.60509">
        <ele>11.1</ele>
        <time>2018-09-26T12:40:58Z</time>
      </trkpt>
      <trkpt lat="43.45856" lon="6.60495">
        <ele>11.5</ele>
        <time>2018-09-26T12:41:06Z</time>
      </trkpt>
      <trkpt lat="43.45857" lon="6.60482">
        <ele>12</ele>
        <time>2018-09-26T12:41:13Z</time>
      </trkpt>
      <trkpt lat="43.45856" lon="6.60469">
        <ele>11.7</ele>
        <time>2018-09-26T12:41:21Z</time>
      </trkpt>
      <trkpt lat="43.45855" lon="6.60456">
        <ele>12.3</ele>
        <time>2018-09-26T12:41:29Z</time>
      </trkpt>
      <trkpt lat="43.45855" lon="6.60442">
        <ele>13</ele>
        <time>2018-09-26T12:41:37Z</time>
      </trkpt>
      <trkpt lat="43.45855" lon="6.6043">
        <ele>13.7</ele>
        <time>2018-09-26T12:41:44Z</time>
      </trkpt>
      <trkpt lat="43.45855" lon="6.60417">
        <ele>13.5</ele>
        <time>2018-09-26T12:41:51Z</time>
      </trkpt>
      <trkpt lat="43.45854" lon="6.60404">
        <ele>14</ele>
        <time>2018-09-26T12:41:59Z</time>
      </trkpt>
      <trkpt lat="43.45854" lon="6.60391">
        <ele>14.3</ele>
        <time>2018-09-26T12:42:07Z</time>
      </trkpt>
      <trkpt lat="43.45854" lon="6.60378">
        <ele>15.4</ele>
        <time>2018-09-26T12:42:14Z</time>
      </trkpt>
      <trkpt lat="43.45855" lon="6.60364">
        <ele>15.4</ele>
        <time>2018-09-26T12:42:22Z</time>
      </trkpt>
      <trkpt lat="43.45856" lon="6.60351">
        <ele>15.4</ele>
        <time>2018-09-26T12:42:30Z</time>
      </trkpt>
      <trkpt lat="43.45855" lon="6.60339">
        <ele>15.7</ele>
        <time>2018-09-26T12:42:38Z</time>
      </trkpt>
      <trkpt lat="43.45855" lon="6.60325">
        <ele>15.7</ele>
        <time>2018-09-26T12:42:46Z</time>
      </trkpt>
      <trkpt lat="43.45856" lon="6.60312">
        <ele>15.9</ele>
        <time>2018-09-26T12:42:54Z</time>
      </trkpt>
      <trkpt lat="43.45858" lon="6.60299">
        <ele>15.6</ele>
        <time>2018-09-26T12:43:01Z</time>
      </trkpt>
      <trkpt lat="43.45859" lon="6.60287">
        <ele>15.4</ele>
        <time>2018-09-26T12:43:07Z</time>
      </trkpt>
      <trkpt lat="43.45861" lon="6.60274">
        <ele>15</ele>
        <time>2018-09-26T12:43:14Z</time>
      </trkpt>
      <trkpt lat="43.45863" lon="6.60261">
        <ele>14.1</ele>
        <time>2018-09-26T12:43:22Z</time>
      </trkpt>
      <trkpt lat="43.45863" lon="6.60247">
        <ele>14.2</ele>
        <time>2018-09-26T12:43:31Z</time>
      </trkpt>
      <trkpt lat="43.45864" lon="6.60234">
        <ele>13.8</ele>
        <time>2018-09-26T12:43:40Z</time>
      </trkpt>
      <trkpt lat="43.45865" lon="6.60221">
        <ele>13.4</ele>
        <time>2018-09-26T12:43:49Z</time>
      </trkpt>
      <trkpt lat="43.45868" lon="6.60209">
        <ele>12.8</ele>
        <time>2018-09-26T12:43:58Z</time>
      </trkpt>
      <trkpt lat="43.45869" lon="6.60196">
        <ele>12.5</ele>
        <time>2018-09-26T12:44:05Z</time>
      </trkpt>
      <trkpt lat="43.45871" lon="6.60183">
        <ele>12.4</ele>
        <time>2018-09-26T12:44:14Z</time>
      </trkpt>
      <trkpt lat="43.45871" lon="6.60169">
        <ele>12.3</ele>
        <time>2018-09-26T12:44:20Z</time>
      </trkpt>
      <trkpt lat="43.45872" lon="6.60155">
        <ele>12</ele>
        <time>2018-09-26T12:44:27Z</time>
      </trkpt>
      <trkpt lat="43.45874" lon="6.60143">
        <ele>12.1</ele>
        <time>2018-09-26T12:44:34Z</time>
      </trkpt>
      <trkpt lat="43.45876" lon="6.60129">
        <ele>12</ele>
        <time>2018-09-26T12:44:42Z</time>
      </trkpt>
      <trkpt lat="43.45875" lon="6.60116">
        <ele>10.7</ele>
        <time>2018-09-26T12:44:50Z</time>
      </trkpt>
      <trkpt lat="43.45877" lon="6.60103">
        <ele>10.6</ele>
        <time>2018-09-26T12:44:59Z</time>
      </trkpt>
      <trkpt lat="43.45878" lon="6.60088">
        <ele>10</ele>
        <time>2018-09-26T12:45:08Z</time>
      </trkpt>
      <trkpt lat="43.4588" lon="6.60075">
        <ele>9.7</ele>
        <time>2018-09-26T12:45:17Z</time>
      </trkpt>
      <trkpt lat="43.45883" lon="6.60062">
        <ele>10</ele>
        <time>2018-09-26T12:45:25Z</time>
      </trkpt>
      <trkpt lat="43.45886" lon="6.60048">
        <ele>10</ele>
        <time>2018-09-26T12:45:33Z</time>
      </trkpt>
      <trkpt lat="43.45889" lon="6.60036">
        <ele>10</ele>
        <time>2018-09-26T12:45:40Z</time>
      </trkpt>
      <trkpt lat="43.45891" lon="6.60023">
        <ele>10.3</ele>
        <time>2018-09-26T12:45:48Z</time>
      </trkpt>
      <trkpt lat="43.45894" lon="6.6001">
        <ele>10.4</ele>
        <time>2018-09-26T12:45:55Z</time>
      </trkpt>
      <trkpt lat="43.45898" lon="6.59998">
        <ele>10.7</ele>
        <time>2018-09-26T12:46:02Z</time>
      </trkpt>
      <trkpt lat="43.45901" lon="6.59985">
        <ele>10.8</ele>
        <time>2018-09-26T12:46:10Z</time>
      </trkpt>
      <trkpt lat="43.45904" lon="6.59973">
        <ele>10.6</ele>
        <time>2018-09-26T12:46:18Z</time>
      </trkpt>
      <trkpt lat="43.45905" lon="6.59959">
        <ele>11.9</ele>
        <time>2018-09-26T12:46:26Z</time>
      </trkpt>
      <trkpt lat="43.45908" lon="6.59947">
        <ele>12.2</ele>
        <time>2018-09-26T12:46:34Z</time>
      </trkpt>
      <trkpt lat="43.4591" lon="6.59934">
        <ele>13.1</ele>
        <time>2018-09-26T12:46:42Z</time>
      </trkpt>
      <trkpt lat="43.45913" lon="6.59921">
        <ele>13.6</ele>
        <time>2018-09-26T12:46:50Z</time>
      </trkpt>
      <trkpt lat="43.45916" lon="6.59908">
        <ele>13.2</ele>
        <time>2018-09-26T12:46:58Z</time>
      </trkpt>
      <trkpt lat="43.45918" lon="6.59895">
        <ele>14</ele>
        <time>2018-09-26T12:47:06Z</time>
      </trkpt>
      <trkpt lat="43.4592" lon="6.59882">
        <ele>14.9</ele>
        <time>2018-09-26T12:47:22Z</time>
      </trkpt>
      <trkpt lat="43.45915" lon="6.59872">
        <ele>16.4</ele>
        <time>2018-09-26T12:47:43Z</time>
      </trkpt>
      <trkpt lat="43.45912" lon="6.5986">
        <ele>19.1</ele>
        <time>2018-09-26T12:48:01Z</time>
      </trkpt>
      <trkpt lat="43.45906" lon="6.5985">
        <ele>21</ele>
        <time>2018-09-26T12:48:16Z</time>
      </trkpt>
      <trkpt lat="43.45898" lon="6.59843">
        <ele>23.7</ele>
        <time>2018-09-26T12:48:28Z</time>
      </trkpt>
      <trkpt lat="43.45889" lon="6.59838">
        <ele>24.6</ele>
        <time>2018-09-26T12:48:40Z</time>
      </trkpt>
      <trkpt lat="43.4588" lon="6.59833">
        <ele>27.1</ele>
        <time>2018-09-26T12:48:51Z</time>
      </trkpt>
      <trkpt lat="43.45871" lon="6.59829">
        <ele>29.5</ele>
        <time>2018-09-26T12:49:04Z</time>
      </trkpt>
      <trkpt lat="43.45863" lon="6.59827">
        <ele>30.8</ele>
        <time>2018-09-26T12:49:15Z</time>
      </trkpt>
      <trkpt lat="43.45854" lon="6.59822">
        <ele>32.6</ele>
        <time>2018-09-26T12:49:29Z</time>
      </trkpt>
      <trkpt lat="43.45845" lon="6.59818">
        <ele>33.8</ele>
        <time>2018-09-26T12:49:43Z</time>
      </trkpt>
      <trkpt lat="43.45836" lon="6.59816">
        <ele>35.7</ele>
        <time>2018-09-26T12:49:56Z</time>
      </trkpt>
      <trkpt lat="43.45828" lon="6.59808">
        <ele>38.3</ele>
        <time>2018-09-26T12:50:09Z</time>
      </trkpt>
      <trkpt lat="43.45819" lon="6.59807">
        <ele>41.3</ele>
        <time>2018-09-26T12:50:23Z</time>
      </trkpt>
      <trkpt lat="43.45811" lon="6.598">
        <ele>45.7</ele>
        <time>2018-09-26T12:51:22Z</time>
      </trkpt>
      <trkpt lat="43.45805" lon="6.59791">
        <ele>48.8</ele>
        <time>2018-09-26T12:51:42Z</time>
      </trkpt>
      <trkpt lat="43.45796" lon="6.5979">
        <ele>50.5</ele>
        <time>2018-09-26T12:51:59Z</time>
      </trkpt>
      <trkpt lat="43.45787" lon="6.59794">
        <ele>52.3</ele>
        <time>2018-09-26T12:52:10Z</time>
      </trkpt>
      <trkpt lat="43.45779" lon="6.59787">
        <ele>54.5</ele>
        <time>2018-09-26T12:52:25Z</time>
      </trkpt>
      <trkpt lat="43.45769" lon="6.59786">
        <ele>57.3</ele>
        <time>2018-09-26T12:52:37Z</time>
      </trkpt>
      <trkpt lat="43.4576" lon="6.59789">
        <ele>59.3</ele>
        <time>2018-09-26T12:52:47Z</time>
      </trkpt>
      <trkpt lat="43.45751" lon="6.59789">
        <ele>61.1</ele>
        <time>2018-09-26T12:52:57Z</time>
      </trkpt>
      <trkpt lat="43.45741" lon="6.59791">
        <ele>63.1</ele>
        <time>2018-09-26T12:53:07Z</time>
      </trkpt>
      <trkpt lat="43.45733" lon="6.59794">
        <ele>65.3</ele>
        <time>2018-09-26T12:53:15Z</time>
      </trkpt>
      <trkpt lat="43.45724" lon="6.59798">
        <ele>66.5</ele>
        <time>2018-09-26T12:53:26Z</time>
      </trkpt>
      <trkpt lat="43.45714" lon="6.59801">
        <ele>68.7</ele>
        <time>2018-09-26T12:53:38Z</time>
      </trkpt>
      <trkpt lat="43.45704" lon="6.59803">
        <ele>71.4</ele>
        <time>2018-09-26T12:53:50Z</time>
      </trkpt>
      <trkpt lat="43.45695" lon="6.59804">
        <ele>72.9</ele>
        <time>2018-09-26T12:54:00Z</time>
      </trkpt>
      <trkpt lat="43.45686" lon="6.59804">
        <ele>75.1</ele>
        <time>2018-09-26T12:54:09Z</time>
      </trkpt>
      <trkpt lat="43.45676" lon="6.59801">
        <ele>76.5</ele>
        <time>2018-09-26T12:54:20Z</time>
      </trkpt>
      <trkpt lat="43.45667" lon="6.59799">
        <ele>79.1</ele>
        <time>2018-09-26T12:54:39Z</time>
      </trkpt>
      <trkpt lat="43.45659" lon="6.59794">
        <ele>81.4</ele>
        <time>2018-09-26T12:55:11Z</time>
      </trkpt>
      <trkpt lat="43.4565" lon="6.59793">
        <ele>83.9</ele>
        <time>2018-09-26T12:55:57Z</time>
      </trkpt>
      <trkpt lat="43.45643" lon="6.59784">
        <ele>87.2</ele>
        <time>2018-09-26T12:56:16Z</time>
      </trkpt>
      <trkpt lat="43.45633" lon="6.59784">
        <ele>88.5</ele>
        <time>2018-09-26T12:56:28Z</time>
      </trkpt>
      <trkpt lat="43.45626" lon="6.59777">
        <ele>90.6</ele>
        <time>2018-09-26T12:56:42Z</time>
      </trkpt>
      <trkpt lat="43.45616" lon="6.59777">
        <ele>92.9</ele>
        <time>2018-09-26T12:56:58Z</time>
      </trkpt>
      <trkpt lat="43.45609" lon="6.59785">
        <ele>93.2</ele>
        <time>2018-09-26T12:57:15Z</time>
      </trkpt>
      <trkpt lat="43.45601" lon="6.59792">
        <ele>93.1</ele>
        <time>2018-09-26T12:57:30Z</time>
      </trkpt>
      <trkpt lat="43.45592" lon="6.59793">
        <ele>95.5</ele>
        <time>2018-09-26T12:57:44Z</time>
      </trkpt>
      <trkpt lat="43.45583" lon="6.59789">
        <ele>96.9</ele>
        <time>2018-09-26T12:57:55Z</time>
      </trkpt>
      <trkpt lat="43.45575" lon="6.59783">
        <ele>99</ele>
        <time>2018-09-26T12:58:06Z</time>
      </trkpt>
      <trkpt lat="43.45567" lon="6.59776">
        <ele>102.2</ele>
        <time>2018-09-26T12:58:18Z</time>
      </trkpt>
      <trkpt lat="43.45561" lon="6.59767">
        <ele>104.9</ele>
        <time>2018-09-26T12:58:31Z</time>
      </trkpt>
      <trkpt lat="43.45551" lon="6.59768">
        <ele>108.4</ele>
        <time>2018-09-26T12:58:50Z</time>
      </trkpt>
      <trkpt lat="43.45542" lon="6.59767">
        <ele>111.3</ele>
        <time>2018-09-26T12:59:05Z</time>
      </trkpt>
      <trkpt lat="43.45533" lon="6.59763">
        <ele>114</ele>
        <time>2018-09-26T12:59:31Z</time>
      </trkpt>
      <trkpt lat="43.45526" lon="6.59771">
        <ele>115.1</ele>
        <time>2018-09-26T13:00:06Z</time>
      </trkpt>
      <trkpt lat="43.45526" lon="6.59758">
        <ele>120.9</ele>
        <time>2018-09-26T13:05:14Z</time>
      </trkpt>
      <trkpt lat="43.45521" lon="6.59748">
        <ele>122.4</ele>
        <time>2018-09-26T13:05:32Z</time>
      </trkpt>
      <trkpt lat="43.45513" lon="6.59742">
        <ele>129</ele>
        <time>2018-09-26T13:06:15Z</time>
      </trkpt>
      <trkpt lat="43.45509" lon="6.59731">
        <ele>133.5</ele>
        <time>2018-09-26T13:06:46Z</time>
      </trkpt>
      <trkpt lat="43.45507" lon="6.59718">
        <ele>135.5</ele>
        <time>2018-09-26T13:07:04Z</time>
      </trkpt>
      <trkpt lat="43.45498" lon="6.59713">
        <ele>140.2</ele>
        <time>2018-09-26T13:07:32Z</time>
      </trkpt>
      <trkpt lat="43.45492" lon="6.59704">
        <ele>143</ele>
        <time>2018-09-26T13:07:51Z</time>
      </trkpt>
      <trkpt lat="43.45487" lon="6.59694">
        <ele>146.4</ele>
        <time>2018-09-26T13:08:11Z</time>
      </trkpt>
      <trkpt lat="43.45482" lon="6.59682">
        <ele>149.5</ele>
        <time>2018-09-26T13:08:31Z</time>
      </trkpt>
      <trkpt lat="43.45476" lon="6.59673">
        <ele>152.1</ele>
        <time>2018-09-26T13:08:46Z</time>
      </trkpt>
      <trkpt lat="43.45476" lon="6.59661">
        <ele>154.4</ele>
        <time>2018-09-26T13:09:05Z</time>
      </trkpt>
      <trkpt lat="43.45468" lon="6.59655">
        <ele>155.8</ele>
        <time>2018-09-26T13:09:20Z</time>
      </trkpt>
      <trkpt lat="43.45461" lon="6.59646">
        <ele>158</ele>
        <time>2018-09-26T13:11:00Z</time>
      </trkpt>
      <trkpt lat="43.45452" lon="6.59642">
        <ele>160.9</ele>
        <time>2018-09-26T13:13:34Z</time>
      </trkpt>
      <trkpt lat="43.45443" lon="6.59636">
        <ele>171.9</ele>
        <time>2018-09-26T13:18:48Z</time>
      </trkpt>
      <trkpt lat="43.45435" lon="6.59632">
        <ele>175</ele>
        <time>2018-09-26T13:19:10Z</time>
      </trkpt>
      <trkpt lat="43.45429" lon="6.59622">
        <ele>177.8</ele>
        <time>2018-09-26T13:19:34Z</time>
      </trkpt>
      <trkpt lat="43.45419" lon="6.59619">
        <ele>180.4</ele>
        <time>2018-09-26T13:19:58Z</time>
      </trkpt>
      <trkpt lat="43.45413" lon="6.5961">
        <ele>183.5</ele>
        <time>2018-09-26T13:20:21Z</time>
      </trkpt>
      <trkpt lat="43.45409" lon="6.59598">
        <ele>185.6</ele>
        <time>2018-09-26T13:20:43Z</time>
      </trkpt>
      <trkpt lat="43.45404" lon="6.59588">
        <ele>189</ele>
        <time>2018-09-26T13:21:07Z</time>
      </trkpt>
      <trkpt lat="43.45401" lon="6.59575">
        <ele>191.1</ele>
        <time>2018-09-26T13:21:30Z</time>
      </trkpt>
      <trkpt lat="43.45396" lon="6.59564">
        <ele>193.2</ele>
        <time>2018-09-26T13:21:53Z</time>
      </trkpt>
      <trkpt lat="43.45393" lon="6.59552">
        <ele>194.3</ele>
        <time>2018-09-26T13:22:05Z</time>
      </trkpt>
      <trkpt lat="43.45386" lon="6.59543">
        <ele>198</ele>
        <time>2018-09-26T13:22:33Z</time>
      </trkpt>
      <trkpt lat="43.4538" lon="6.59532">
        <ele>199.5</ele>
        <time>2018-09-26T13:22:53Z</time>
      </trkpt>
      <trkpt lat="43.45377" lon="6.5952">
        <ele>201.7</ele>
        <time>2018-09-26T13:23:09Z</time>
      </trkpt>
      <trkpt lat="43.45371" lon="6.59511">
        <ele>203</ele>
        <time>2018-09-26T13:23:26Z</time>
      </trkpt>
      <trkpt lat="43.45363" lon="6.59504">
        <ele>204.5</ele>
        <time>2018-09-26T13:23:46Z</time>
      </trkpt>
      <trkpt lat="43.4536" lon="6.59492">
        <ele>205.9</ele>
        <time>2018-09-26T13:23:58Z</time>
      </trkpt>
      <trkpt lat="43.45353" lon="6.59484">
        <ele>209.1</ele>
        <time>2018-09-26T13:24:23Z</time>
      </trkpt>
      <trkpt lat="43.45346" lon="6.59476">
        <ele>211.2</ele>
        <time>2018-09-26T13:24:40Z</time>
      </trkpt>
      <trkpt lat="43.45339" lon="6.59468">
        <ele>214</ele>
        <time>2018-09-26T13:25:18Z</time>
      </trkpt>
      <trkpt lat="43.45337" lon="6.59456">
        <ele>214.3</ele>
        <time>2018-09-26T13:26:48Z</time>
      </trkpt>
      <trkpt lat="43.45329" lon="6.59448">
        <ele>216.6</ele>
        <time>2018-09-26T13:28:09Z</time>
      </trkpt>
      <trkpt lat="43.45332" lon="6.59436">
        <ele>218.2</ele>
        <time>2018-09-26T13:28:26Z</time>
      </trkpt>
      <trkpt lat="43.45339" lon="6.59429">
        <ele>218.3</ele>
        <time>2018-09-26T13:28:40Z</time>
      </trkpt>
      <trkpt lat="43.45351" lon="6.59428">
        <ele>219.1</ele>
        <time>2018-09-26T13:28:51Z</time>
      </trkpt>
      <trkpt lat="43.45358" lon="6.5942">
        <ele>222.6</ele>
        <time>2018-09-26T13:29:06Z</time>
      </trkpt>
      <trkpt lat="43.45366" lon="6.59413">
        <ele>224.9</ele>
        <time>2018-09-26T13:29:23Z</time>
      </trkpt>
      <trkpt lat="43.45374" lon="6.59407">
        <ele>226.9</ele>
        <time>2018-09-26T13:31:23Z</time>
      </trkpt>
      <trkpt lat="43.45383" lon="6.59405">
        <ele>227.8</ele>
        <time>2018-09-26T13:33:01Z</time>
      </trkpt>
      <trkpt lat="43.45374" lon="6.59407">
        <ele>228.9</ele>
        <time>2018-09-26T13:38:44Z</time>
      </trkpt>
      <trkpt lat="43.45366" lon="6.59415">
        <ele>224.7</ele>
        <time>2018-09-26T13:39:05Z</time>
      </trkpt>
      <trkpt lat="43.45357" lon="6.59416">
        <ele>224.8</ele>
        <time>2018-09-26T13:39:17Z</time>
      </trkpt>
      <trkpt lat="43.45347" lon="6.59418">
        <ele>224.7</ele>
        <time>2018-09-26T13:39:27Z</time>
      </trkpt>
      <trkpt lat="43.45338" lon="6.59421">
        <ele>225</ele>
        <time>2018-09-26T13:39:38Z</time>
      </trkpt>
      <trkpt lat="43.45328" lon="6.59425">
        <ele>225.4</ele>
        <time>2018-09-26T13:39:47Z</time>
      </trkpt>
      <trkpt lat="43.45319" lon="6.59425">
        <ele>226.1</ele>
        <time>2018-09-26T13:39:56Z</time>
      </trkpt>
      <trkpt lat="43.4531" lon="6.5942">
        <ele>226.7</ele>
        <time>2018-09-26T13:40:05Z</time>
      </trkpt>
      <trkpt lat="43.45302" lon="6.59414">
        <ele>226.3</ele>
        <time>2018-09-26T13:40:17Z</time>
      </trkpt>
      <trkpt lat="43.45293" lon="6.59411">
        <ele>226.6</ele>
        <time>2018-09-26T13:40:25Z</time>
      </trkpt>
      <trkpt lat="43.45286" lon="6.59402">
        <ele>226.5</ele>
        <time>2018-09-26T13:40:34Z</time>
      </trkpt>
      <trkpt lat="43.45275" lon="6.59401">
        <ele>227.2</ele>
        <time>2018-09-26T13:40:43Z</time>
      </trkpt>
      <trkpt lat="43.45267" lon="6.59394">
        <ele>228.4</ele>
        <time>2018-09-26T13:40:57Z</time>
      </trkpt>
      <trkpt lat="43.45257" lon="6.59391">
        <ele>228.2</ele>
        <time>2018-09-26T13:41:09Z</time>
      </trkpt>
      <trkpt lat="43.45248" lon="6.59395">
        <ele>228.2</ele>
        <time>2018-09-26T13:41:16Z</time>
      </trkpt>
      <trkpt lat="43.45238" lon="6.59392">
        <ele>228.9</ele>
        <time>2018-09-26T13:41:28Z</time>
      </trkpt>
      <trkpt lat="43.45229" lon="6.59389">
        <ele>229.3</ele>
        <time>2018-09-26T13:41:36Z</time>
      </trkpt>
      <trkpt lat="43.4522" lon="6.59385">
        <ele>228.1</ele>
        <time>2018-09-26T13:41:48Z</time>
      </trkpt>
      <trkpt lat="43.45211" lon="6.59381">
        <ele>227.5</ele>
        <time>2018-09-26T13:41:58Z</time>
      </trkpt>
      <trkpt lat="43.45202" lon="6.59376">
        <ele>227</ele>
        <time>2018-09-26T13:42:09Z</time>
      </trkpt>
      <trkpt lat="43.45193" lon="6.59371">
        <ele>227.1</ele>
        <time>2018-09-26T13:42:16Z</time>
      </trkpt>
      <trkpt lat="43.45184" lon="6.59371">
        <ele>227.1</ele>
        <time>2018-09-26T13:42:24Z</time>
      </trkpt>
      <trkpt lat="43.45174" lon="6.59368">
        <ele>226.8</ele>
        <time>2018-09-26T13:42:31Z</time>
      </trkpt>
      <trkpt lat="43.45165" lon="6.59368">
        <ele>226.8</ele>
        <time>2018-09-26T13:42:38Z</time>
      </trkpt>
      <trkpt lat="43.45155" lon="6.59367">
        <ele>227.7</ele>
        <time>2018-09-26T13:42:49Z</time>
      </trkpt>
      <trkpt lat="43.45146" lon="6.59371">
        <ele>228.8</ele>
        <time>2018-09-26T13:42:58Z</time>
      </trkpt>
      <trkpt lat="43.45137" lon="6.59372">
        <ele>230.2</ele>
        <time>2018-09-26T13:43:05Z</time>
      </trkpt>
      <trkpt lat="43.45127" lon="6.5937">
        <ele>229.5</ele>
        <time>2018-09-26T13:43:14Z</time>
      </trkpt>
      <trkpt lat="43.45119" lon="6.59365">
        <ele>229</ele>
        <time>2018-09-26T13:43:27Z</time>
      </trkpt>
      <trkpt lat="43.45111" lon="6.59359">
        <ele>230.1</ele>
        <time>2018-09-26T13:43:40Z</time>
      </trkpt>
      <trkpt lat="43.45101" lon="6.59355">
        <ele>230.4</ele>
        <time>2018-09-26T13:43:49Z</time>
      </trkpt>
      <trkpt lat="43.45092" lon="6.59352">
        <ele>231.1</ele>
        <time>2018-09-26T13:43:59Z</time>
      </trkpt>
      <trkpt lat="43.45083" lon="6.59351">
        <ele>230.5</ele>
        <time>2018-09-26T13:44:07Z</time>
      </trkpt>
      <trkpt lat="43.45073" lon="6.59352">
        <ele>229.7</ele>
        <time>2018-09-26T13:44:17Z</time>
      </trkpt>
      <trkpt lat="43.45064" lon="6.59348">
        <ele>229</ele>
        <time>2018-09-26T13:44:24Z</time>
      </trkpt>
      <trkpt lat="43.45055" lon="6.59342">
        <ele>227.8</ele>
        <time>2018-09-26T13:44:33Z</time>
      </trkpt>
      <trkpt lat="43.45048" lon="6.59333">
        <ele>228</ele>
        <time>2018-09-26T13:44:42Z</time>
      </trkpt>
      <trkpt lat="43.45043" lon="6.59322">
        <ele>228.7</ele>
        <time>2018-09-26T13:44:57Z</time>
      </trkpt>
      <trkpt lat="43.45036" lon="6.59315">
        <ele>228.9</ele>
        <time>2018-09-26T13:47:34Z</time>
      </trkpt>
      <trkpt lat="43.4503" lon="6.59324">
        <ele>228.7</ele>
        <time>2018-09-26T13:53:27Z</time>
      </trkpt>
      <trkpt lat="43.45025" lon="6.59335">
        <ele>225.1</ele>
        <time>2018-09-26T13:53:40Z</time>
      </trkpt>
      <trkpt lat="43.45022" lon="6.59348">
        <ele>222.4</ele>
        <time>2018-09-26T13:53:51Z</time>
      </trkpt>
      <trkpt lat="43.45014" lon="6.59355">
        <ele>218.6</ele>
        <time>2018-09-26T13:54:28Z</time>
      </trkpt>
      <trkpt lat="43.45005" lon="6.59355">
        <ele>217.1</ele>
        <time>2018-09-26T13:54:40Z</time>
      </trkpt>
      <trkpt lat="43.44999" lon="6.59345">
        <ele>215.3</ele>
        <time>2018-09-26T13:54:54Z</time>
      </trkpt>
      <trkpt lat="43.44991" lon="6.59339">
        <ele>213.6</ele>
        <time>2018-09-26T13:55:13Z</time>
      </trkpt>
      <trkpt lat="43.44981" lon="6.59336">
        <ele>211.9</ele>
        <time>2018-09-26T13:55:27Z</time>
      </trkpt>
      <trkpt lat="43.44973" lon="6.5933">
        <ele>209.2</ele>
        <time>2018-09-26T13:55:40Z</time>
      </trkpt>
      <trkpt lat="43.44966" lon="6.59323">
        <ele>207.4</ele>
        <time>2018-09-26T13:55:53Z</time>
      </trkpt>
      <trkpt lat="43.44959" lon="6.59315">
        <ele>206.1</ele>
        <time>2018-09-26T13:56:04Z</time>
      </trkpt>
      <trkpt lat="43.44952" lon="6.59306">
        <ele>205.2</ele>
        <time>2018-09-26T13:57:16Z</time>
      </trkpt>
      <trkpt lat="43.44947" lon="6.59294">
        <ele>204.4</ele>
        <time>2018-09-26T13:59:57Z</time>
      </trkpt>
      <trkpt lat="43.44951" lon="6.59283">
        <ele>205.2</ele>
        <time>2018-09-26T14:00:05Z</time>
      </trkpt>
      <trkpt lat="43.4495" lon="6.5927">
        <ele>206.5</ele>
        <time>2018-09-26T14:00:13Z</time>
      </trkpt>
      <trkpt lat="43.44954" lon="6.59258">
        <ele>207.2</ele>
        <time>2018-09-26T14:00:21Z</time>
      </trkpt>
      <trkpt lat="43.44957" lon="6.59246">
        <ele>207.3</ele>
        <time>2018-09-26T14:00:29Z</time>
      </trkpt>
      <trkpt lat="43.44959" lon="6.59234">
        <ele>207.6</ele>
        <time>2018-09-26T14:00:38Z</time>
      </trkpt>
      <trkpt lat="43.44955" lon="6.59223">
        <ele>209.6</ele>
        <time>2018-09-26T14:03:17Z</time>
      </trkpt>
      <trkpt lat="43.44948" lon="6.59215">
        <ele>210.2</ele>
        <time>2018-09-26T14:03:34Z</time>
      </trkpt>
      <trkpt lat="43.44953" lon="6.59225">
        <ele>209.9</ele>
        <time>2018-09-26T14:06:16Z</time>
      </trkpt>
      <trkpt lat="43.44959" lon="6.59235">
        <ele>208.7</ele>
        <time>2018-09-26T14:06:26Z</time>
      </trkpt>
      <trkpt lat="43.44956" lon="6.59247">
        <ele>208.2</ele>
        <time>2018-09-26T14:06:40Z</time>
      </trkpt>
      <trkpt lat="43.44952" lon="6.59259">
        <ele>208.3</ele>
        <time>2018-09-26T14:06:51Z</time>
      </trkpt>
      <trkpt lat="43.44951" lon="6.59271">
        <ele>207.5</ele>
        <time>2018-09-26T14:07:02Z</time>
      </trkpt>
      <trkpt lat="43.44949" lon="6.59284">
        <ele>205.3</ele>
        <time>2018-09-26T14:07:18Z</time>
      </trkpt>
      <trkpt lat="43.44943" lon="6.59294">
        <ele>204.3</ele>
        <time>2018-09-26T14:07:32Z</time>
      </trkpt>
      <trkpt lat="43.44943" lon="6.59307">
        <ele>203.9</ele>
        <time>2018-09-26T14:08:28Z</time>
      </trkpt>
      <trkpt lat="43.44934" lon="6.59306">
        <ele>202.9</ele>
        <time>2018-09-26T14:09:34Z</time>
      </trkpt>
      <trkpt lat="43.44924" lon="6.59305">
        <ele>200.8</ele>
        <time>2018-09-26T14:09:58Z</time>
      </trkpt>
      <trkpt lat="43.44916" lon="6.59313">
        <ele>200.2</ele>
        <time>2018-09-26T14:10:08Z</time>
      </trkpt>
      <trkpt lat="43.44911" lon="6.59324">
        <ele>199.8</ele>
        <time>2018-09-26T14:10:20Z</time>
      </trkpt>
      <trkpt lat="43.44904" lon="6.59332">
        <ele>199</ele>
        <time>2018-09-26T14:10:35Z</time>
      </trkpt>
      <trkpt lat="43.44895" lon="6.59338">
        <ele>199</ele>
        <time>2018-09-26T14:10:47Z</time>
      </trkpt>
      <trkpt lat="43.44888" lon="6.59347">
        <ele>198.8</ele>
        <time>2018-09-26T14:10:58Z</time>
      </trkpt>
      <trkpt lat="43.44882" lon="6.59356">
        <ele>199.3</ele>
        <time>2018-09-26T14:11:07Z</time>
      </trkpt>
      <trkpt lat="43.44875" lon="6.59365">
        <ele>199.9</ele>
        <time>2018-09-26T14:11:16Z</time>
      </trkpt>
      <trkpt lat="43.44869" lon="6.59374">
        <ele>200.9</ele>
        <time>2018-09-26T14:11:25Z</time>
      </trkpt>
      <trkpt lat="43.4486" lon="6.5938">
        <ele>201.9</ele>
        <time>2018-09-26T14:11:36Z</time>
      </trkpt>
      <trkpt lat="43.4485" lon="6.59382">
        <ele>201.8</ele>
        <time>2018-09-26T14:11:46Z</time>
      </trkpt>
      <trkpt lat="43.44842" lon="6.59389">
        <ele>201.9</ele>
        <time>2018-09-26T14:11:55Z</time>
      </trkpt>
      <trkpt lat="43.44836" lon="6.59398">
        <ele>201.6</ele>
        <time>2018-09-26T14:12:03Z</time>
      </trkpt>
      <trkpt lat="43.44831" lon="6.59409">
        <ele>201.4</ele>
        <time>2018-09-26T14:12:12Z</time>
      </trkpt>
      <trkpt lat="43.44823" lon="6.59417">
        <ele>201.1</ele>
        <time>2018-09-26T14:12:21Z</time>
      </trkpt>
      <trkpt lat="43.44815" lon="6.59423">
        <ele>201.3</ele>
        <time>2018-09-26T14:12:45Z</time>
      </trkpt>
      <trkpt lat="43.44809" lon="6.59433">
        <ele>201.4</ele>
        <time>2018-09-26T14:13:13Z</time>
      </trkpt>
      <trkpt lat="43.44802" lon="6.5944">
        <ele>200.3</ele>
        <time>2018-09-26T14:13:37Z</time>
      </trkpt>
      <trkpt lat="43.44792" lon="6.59444">
        <ele>199.1</ele>
        <time>2018-09-26T14:13:52Z</time>
      </trkpt>
      <trkpt lat="43.44786" lon="6.59454">
        <ele>198.3</ele>
        <time>2018-09-26T14:14:06Z</time>
      </trkpt>
      <trkpt lat="43.44779" lon="6.59463">
        <ele>196.6</ele>
        <time>2018-09-26T14:14:17Z</time>
      </trkpt>
      <trkpt lat="43.4477" lon="6.59468">
        <ele>195.9</ele>
        <time>2018-09-26T14:14:27Z</time>
      </trkpt>
      <trkpt lat="43.44761" lon="6.59469">
        <ele>195.6</ele>
        <time>2018-09-26T14:14:39Z</time>
      </trkpt>
      <trkpt lat="43.44752" lon="6.59472">
        <ele>194.8</ele>
        <time>2018-09-26T14:14:51Z</time>
      </trkpt>
      <trkpt lat="43.44744" lon="6.59478">
        <ele>193.9</ele>
        <time>2018-09-26T14:15:02Z</time>
      </trkpt>
      <trkpt lat="43.44736" lon="6.59484">
        <ele>193.6</ele>
        <time>2018-09-26T14:15:11Z</time>
      </trkpt>
      <trkpt lat="43.44729" lon="6.59492">
        <ele>192.7</ele>
        <time>2018-09-26T14:15:20Z</time>
      </trkpt>
      <trkpt lat="43.44721" lon="6.59498">
        <ele>192.7</ele>
        <time>2018-09-26T14:15:29Z</time>
      </trkpt>
      <trkpt lat="43.44715" lon="6.59507">
        <ele>192.1</ele>
        <time>2018-09-26T14:15:37Z</time>
      </trkpt>
      <trkpt lat="43.44708" lon="6.59516">
        <ele>192</ele>
        <time>2018-09-26T14:15:46Z</time>
      </trkpt>
      <trkpt lat="43.44701" lon="6.59526">
        <ele>191.5</ele>
        <time>2018-09-26T14:15:55Z</time>
      </trkpt>
      <trkpt lat="43.44697" lon="6.59538">
        <ele>191.2</ele>
        <time>2018-09-26T14:16:03Z</time>
      </trkpt>
      <trkpt lat="43.44691" lon="6.59549">
        <ele>191.4</ele>
        <time>2018-09-26T14:16:12Z</time>
      </trkpt>
      <trkpt lat="43.44686" lon="6.5956">
        <ele>191.2</ele>
        <time>2018-09-26T14:16:21Z</time>
      </trkpt>
      <trkpt lat="43.44682" lon="6.59572">
        <ele>191.2</ele>
        <time>2018-09-26T14:16:32Z</time>
      </trkpt>
      <trkpt lat="43.44678" lon="6.59585">
        <ele>190.4</ele>
        <time>2018-09-26T14:16:41Z</time>
      </trkpt>
      <trkpt lat="43.44678" lon="6.59598">
        <ele>189.7</ele>
        <time>2018-09-26T14:16:58Z</time>
      </trkpt>
      <trkpt lat="43.4468" lon="6.59611">
        <ele>187.7</ele>
        <time>2018-09-26T14:17:13Z</time>
      </trkpt>
      <trkpt lat="43.44684" lon="6.59622">
        <ele>186.7</ele>
        <time>2018-09-26T14:17:23Z</time>
      </trkpt>
      <trkpt lat="43.44686" lon="6.59635">
        <ele>185.5</ele>
        <time>2018-09-26T14:17:34Z</time>
      </trkpt>
      <trkpt lat="43.44692" lon="6.59646">
        <ele>184.2</ele>
        <time>2018-09-26T14:17:44Z</time>
      </trkpt>
      <trkpt lat="43.44702" lon="6.59648">
        <ele>183.8</ele>
        <time>2018-09-26T14:17:54Z</time>
      </trkpt>
      <trkpt lat="43.44711" lon="6.59649">
        <ele>183.2</ele>
        <time>2018-09-26T14:18:01Z</time>
      </trkpt>
      <trkpt lat="43.44717" lon="6.59659">
        <ele>183.5</ele>
        <time>2018-09-26T14:18:12Z</time>
      </trkpt>
      <trkpt lat="43.44721" lon="6.5967">
        <ele>183.9</ele>
        <time>2018-09-26T14:18:21Z</time>
      </trkpt>
      <trkpt lat="43.44724" lon="6.59682">
        <ele>184.8</ele>
        <time>2018-09-26T14:18:34Z</time>
      </trkpt>
      <trkpt lat="43.44729" lon="6.59693">
        <ele>185.1</ele>
        <time>2018-09-26T14:18:44Z</time>
      </trkpt>
      <trkpt lat="43.44733" lon="6.59704">
        <ele>184.3</ele>
        <time>2018-09-26T14:18:52Z</time>
      </trkpt>
      <trkpt lat="43.44734" lon="6.59717">
        <ele>184.7</ele>
        <time>2018-09-26T14:19:03Z</time>
      </trkpt>
      <trkpt lat="43.44734" lon="6.5973">
        <ele>184.8</ele>
        <time>2018-09-26T14:19:12Z</time>
      </trkpt>
      <trkpt lat="43.44732" lon="6.59743">
        <ele>184</ele>
        <time>2018-09-26T14:19:21Z</time>
      </trkpt>
      <trkpt lat="43.44731" lon="6.59756">
        <ele>182.6</ele>
        <time>2018-09-26T14:19:30Z</time>
      </trkpt>
      <trkpt lat="43.44731" lon="6.5977">
        <ele>182.6</ele>
        <time>2018-09-26T14:19:41Z</time>
      </trkpt>
      <trkpt lat="43.44732" lon="6.59782">
        <ele>182.5</ele>
        <time>2018-09-26T14:19:51Z</time>
      </trkpt>
      <trkpt lat="43.44733" lon="6.59795">
        <ele>182.1</ele>
        <time>2018-09-26T14:20:00Z</time>
      </trkpt>
      <trkpt lat="43.44733" lon="6.59808">
        <ele>182.3</ele>
        <time>2018-09-26T14:20:10Z</time>
      </trkpt>
      <trkpt lat="43.44725" lon="6.59818">
        <ele>182.1</ele>
        <time>2018-09-26T14:20:30Z</time>
      </trkpt>
      <trkpt lat="43.44716" lon="6.59812">
        <ele>181.8</ele>
        <time>2018-09-26T14:22:14Z</time>
      </trkpt>
      <trkpt lat="43.44711" lon="6.59802">
        <ele>180.9</ele>
        <time>2018-09-26T14:22:26Z</time>
      </trkpt>
      <trkpt lat="43.4471" lon="6.5979">
        <ele>179.7</ele>
        <time>2018-09-26T14:22:35Z</time>
      </trkpt>
      <trkpt lat="43.44704" lon="6.59781">
        <ele>179.4</ele>
        <time>2018-09-26T14:22:48Z</time>
      </trkpt>
      <trkpt lat="43.44695" lon="6.59778">
        <ele>178.7</ele>
        <time>2018-09-26T14:22:59Z</time>
      </trkpt>
      <trkpt lat="43.44685" lon="6.5978">
        <ele>177.3</ele>
        <time>2018-09-26T14:23:08Z</time>
      </trkpt>
      <trkpt lat="43.44677" lon="6.59784">
        <ele>177.1</ele>
        <time>2018-09-26T14:23:18Z</time>
      </trkpt>
      <trkpt lat="43.44667" lon="6.59791">
        <ele>176.4</ele>
        <time>2018-09-26T14:23:32Z</time>
      </trkpt>
      <trkpt lat="43.44659" lon="6.59795">
        <ele>176.1</ele>
        <time>2018-09-26T14:23:41Z</time>
      </trkpt>
      <trkpt lat="43.44652" lon="6.59804">
        <ele>176.1</ele>
        <time>2018-09-26T14:23:50Z</time>
      </trkpt>
      <trkpt lat="43.44643" lon="6.59809">
        <ele>177.8</ele>
        <time>2018-09-26T14:24:02Z</time>
      </trkpt>
      <trkpt lat="43.44634" lon="6.59812">
        <ele>178.1</ele>
        <time>2018-09-26T14:24:17Z</time>
      </trkpt>
      <trkpt lat="43.44625" lon="6.59815">
        <ele>177</ele>
        <time>2018-09-26T14:24:29Z</time>
      </trkpt>
      <trkpt lat="43.44616" lon="6.59818">
        <ele>175.9</ele>
        <time>2018-09-26T14:24:40Z</time>
      </trkpt>
      <trkpt lat="43.44607" lon="6.5982">
        <ele>175.2</ele>
        <time>2018-09-26T14:24:51Z</time>
      </trkpt>
      <trkpt lat="43.44597" lon="6.59819">
        <ele>174.1</ele>
        <time>2018-09-26T14:25:02Z</time>
      </trkpt>
      <trkpt lat="43.44588" lon="6.59816">
        <ele>172.8</ele>
        <time>2018-09-26T14:25:12Z</time>
      </trkpt>
      <trkpt lat="43.44579" lon="6.59816">
        <ele>171.2</ele>
        <time>2018-09-26T14:25:23Z</time>
      </trkpt>
      <trkpt lat="43.44571" lon="6.5981">
        <ele>169.2</ele>
        <time>2018-09-26T14:25:36Z</time>
      </trkpt>
      <trkpt lat="43.44562" lon="6.59806">
        <ele>167.6</ele>
        <time>2018-09-26T14:25:47Z</time>
      </trkpt>
      <trkpt lat="43.44553" lon="6.59803">
        <ele>165.5</ele>
        <time>2018-09-26T14:26:05Z</time>
      </trkpt>
      <trkpt lat="43.44543" lon="6.59806">
        <ele>164.3</ele>
        <time>2018-09-26T14:26:18Z</time>
      </trkpt>
      <trkpt lat="43.44534" lon="6.59806">
        <ele>162.9</ele>
        <time>2018-09-26T14:26:30Z</time>
      </trkpt>
      <trkpt lat="43.44525" lon="6.59811">
        <ele>162.9</ele>
        <time>2018-09-26T14:26:40Z</time>
      </trkpt>
      <trkpt lat="43.44517" lon="6.59816">
        <ele>162.6</ele>
        <time>2018-09-26T14:26:48Z</time>
      </trkpt>
      <trkpt lat="43.4451" lon="6.59824">
        <ele>161.7</ele>
        <time>2018-09-26T14:27:00Z</time>
      </trkpt>
      <trkpt lat="43.44501" lon="6.59827">
        <ele>160.5</ele>
        <time>2018-09-26T14:27:13Z</time>
      </trkpt>
      <trkpt lat="43.44492" lon="6.59827">
        <ele>159.9</ele>
        <time>2018-09-26T14:27:22Z</time>
      </trkpt>
      <trkpt lat="43.44483" lon="6.59828">
        <ele>158.9</ele>
        <time>2018-09-26T14:27:34Z</time>
      </trkpt>
      <trkpt lat="43.44474" lon="6.59832">
        <ele>157.6</ele>
        <time>2018-09-26T14:27:45Z</time>
      </trkpt>
      <trkpt lat="43.44466" lon="6.59837">
        <ele>155.6</ele>
        <time>2018-09-26T14:27:58Z</time>
      </trkpt>
      <trkpt lat="43.44458" lon="6.59845">
        <ele>154.8</ele>
        <time>2018-09-26T14:28:08Z</time>
      </trkpt>
      <trkpt lat="43.44453" lon="6.59855">
        <ele>153.9</ele>
        <time>2018-09-26T14:28:21Z</time>
      </trkpt>
      <trkpt lat="43.44447" lon="6.59865">
        <ele>153.8</ele>
        <time>2018-09-26T14:29:21Z</time>
      </trkpt>
      <trkpt lat="43.44444" lon="6.59878">
        <ele>152.7</ele>
        <time>2018-09-26T14:29:35Z</time>
      </trkpt>
      <trkpt lat="43.44436" lon="6.59886">
        <ele>152.5</ele>
        <time>2018-09-26T14:29:50Z</time>
      </trkpt>
      <trkpt lat="43.44431" lon="6.59897">
        <ele>152</ele>
        <time>2018-09-26T14:30:01Z</time>
      </trkpt>
      <trkpt lat="43.44427" lon="6.59909">
        <ele>152</ele>
        <time>2018-09-26T14:30:11Z</time>
      </trkpt>
      <trkpt lat="43.44421" lon="6.59918">
        <ele>151.3</ele>
        <time>2018-09-26T14:30:21Z</time>
      </trkpt>
      <trkpt lat="43.44416" lon="6.5993">
        <ele>150.8</ele>
        <time>2018-09-26T14:30:31Z</time>
      </trkpt>
      <trkpt lat="43.44411" lon="6.59941">
        <ele>150.9</ele>
        <time>2018-09-26T14:30:40Z</time>
      </trkpt>
      <trkpt lat="43.44406" lon="6.59952">
        <ele>150.6</ele>
        <time>2018-09-26T14:30:48Z</time>
      </trkpt>
      <trkpt lat="43.44399" lon="6.59959">
        <ele>149.7</ele>
        <time>2018-09-26T14:31:00Z</time>
      </trkpt>
      <trkpt lat="43.4439" lon="6.59964">
        <ele>148.1</ele>
        <time>2018-09-26T14:31:15Z</time>
      </trkpt>
      <trkpt lat="43.44385" lon="6.59975">
        <ele>147.1</ele>
        <time>2018-09-26T14:31:25Z</time>
      </trkpt>
      <trkpt lat="43.44384" lon="6.59988">
        <ele>145.9</ele>
        <time>2018-09-26T14:31:38Z</time>
      </trkpt>
      <trkpt lat="43.44379" lon="6.59999">
        <ele>142.8</ele>
        <time>2018-09-26T14:31:54Z</time>
      </trkpt>
      <trkpt lat="43.44372" lon="6.60009">
        <ele>140.6</ele>
        <time>2018-09-26T14:32:05Z</time>
      </trkpt>
      <trkpt lat="43.44369" lon="6.6002">
        <ele>139.6</ele>
        <time>2018-09-26T14:32:16Z</time>
      </trkpt>
      <trkpt lat="43.44367" lon="6.60034">
        <ele>137.6</ele>
        <time>2018-09-26T14:32:27Z</time>
      </trkpt>
      <trkpt lat="43.44364" lon="6.60047">
        <ele>137</ele>
        <time>2018-09-26T14:32:39Z</time>
      </trkpt>
      <trkpt lat="43.44363" lon="6.6006">
        <ele>136.8</ele>
        <time>2018-09-26T14:32:48Z</time>
      </trkpt>
      <trkpt lat="43.44362" lon="6.60073">
        <ele>135.7</ele>
        <time>2018-09-26T14:32:58Z</time>
      </trkpt>
      <trkpt lat="43.4436" lon="6.60085">
        <ele>134.6</ele>
        <time>2018-09-26T14:33:07Z</time>
      </trkpt>
      <trkpt lat="43.44357" lon="6.60097">
        <ele>133.7</ele>
        <time>2018-09-26T14:33:16Z</time>
      </trkpt>
      <trkpt lat="43.44351" lon="6.60108">
        <ele>133.2</ele>
        <time>2018-09-26T14:33:26Z</time>
      </trkpt>
      <trkpt lat="43.44342" lon="6.60113">
        <ele>133.1</ele>
        <time>2018-09-26T14:33:35Z</time>
      </trkpt>
      <trkpt lat="43.44334" lon="6.6012">
        <ele>133.9</ele>
        <time>2018-09-26T14:33:48Z</time>
      </trkpt>
      <trkpt lat="43.44328" lon="6.6013">
        <ele>135</ele>
        <time>2018-09-26T14:34:01Z</time>
      </trkpt>
      <trkpt lat="43.4432" lon="6.60136">
        <ele>132.3</ele>
        <time>2018-09-26T14:34:30Z</time>
      </trkpt>
      <trkpt lat="43.44311" lon="6.60139">
        <ele>130.5</ele>
        <time>2018-09-26T14:34:45Z</time>
      </trkpt>
      <trkpt lat="43.44302" lon="6.60141">
        <ele>128.9</ele>
        <time>2018-09-26T14:34:56Z</time>
      </trkpt>
      <trkpt lat="43.44293" lon="6.60146">
        <ele>127.2</ele>
        <time>2018-09-26T14:35:12Z</time>
      </trkpt>
      <trkpt lat="43.44285" lon="6.60154">
        <ele>127.5</ele>
        <time>2018-09-26T14:36:07Z</time>
      </trkpt>
      <trkpt lat="43.44278" lon="6.60161">
        <ele>126.7</ele>
        <time>2018-09-26T14:36:25Z</time>
      </trkpt>
      <trkpt lat="43.44271" lon="6.6017">
        <ele>126.1</ele>
        <time>2018-09-26T14:36:37Z</time>
      </trkpt>
      <trkpt lat="43.44266" lon="6.60181">
        <ele>125.6</ele>
        <time>2018-09-26T14:36:47Z</time>
      </trkpt>
      <trkpt lat="43.44262" lon="6.60192">
        <ele>124.3</ele>
        <time>2018-09-26T14:36:59Z</time>
      </trkpt>
      <trkpt lat="43.44259" lon="6.60204">
        <ele>123.7</ele>
        <time>2018-09-26T14:37:10Z</time>
      </trkpt>
      <trkpt lat="43.44256" lon="6.60216">
        <ele>121.8</ele>
        <time>2018-09-26T14:37:25Z</time>
      </trkpt>
      <trkpt lat="43.44253" lon="6.60228">
        <ele>121.4</ele>
        <time>2018-09-26T14:37:34Z</time>
      </trkpt>
      <trkpt lat="43.44249" lon="6.60241">
        <ele>120.2</ele>
        <time>2018-09-26T14:37:45Z</time>
      </trkpt>
      <trkpt lat="43.44246" lon="6.60253">
        <ele>118.8</ele>
        <time>2018-09-26T14:37:56Z</time>
      </trkpt>
      <trkpt lat="43.44242" lon="6.60264">
        <ele>117.5</ele>
        <time>2018-09-26T14:38:09Z</time>
      </trkpt>
      <trkpt lat="43.44236" lon="6.60273">
        <ele>116.9</ele>
        <time>2018-09-26T14:38:22Z</time>
      </trkpt>
      <trkpt lat="43.44233" lon="6.60286">
        <ele>116</ele>
        <time>2018-09-26T14:38:40Z</time>
      </trkpt>
      <trkpt lat="43.44233" lon="6.60299">
        <ele>115</ele>
        <time>2018-09-26T14:38:48Z</time>
      </trkpt>
      <trkpt lat="43.44232" lon="6.60312">
        <ele>115</ele>
        <time>2018-09-26T14:39:03Z</time>
      </trkpt>
      <trkpt lat="43.4423" lon="6.60325">
        <ele>114.6</ele>
        <time>2018-09-26T14:39:14Z</time>
      </trkpt>
      <trkpt lat="43.44228" lon="6.60338">
        <ele>113.9</ele>
        <time>2018-09-26T14:39:24Z</time>
      </trkpt>
      <trkpt lat="43.44223" lon="6.60349">
        <ele>113.4</ele>
        <time>2018-09-26T14:39:35Z</time>
      </trkpt>
      <trkpt lat="43.44218" lon="6.6036">
        <ele>113</ele>
        <time>2018-09-26T14:39:45Z</time>
      </trkpt>
      <trkpt lat="43.44212" lon="6.6037">
        <ele>112.7</ele>
        <time>2018-09-26T14:39:55Z</time>
      </trkpt>
      <trkpt lat="43.44208" lon="6.60382">
        <ele>111.5</ele>
        <time>2018-09-26T14:40:07Z</time>
      </trkpt>
      <trkpt lat="43.44206" lon="6.60394">
        <ele>110.4</ele>
        <time>2018-09-26T14:40:19Z</time>
      </trkpt>
      <trkpt lat="43.44205" lon="6.60408">
        <ele>108.7</ele>
        <time>2018-09-26T14:40:30Z</time>
      </trkpt>
      <trkpt lat="43.44204" lon="6.6042">
        <ele>107.6</ele>
        <time>2018-09-26T14:40:42Z</time>
      </trkpt>
      <trkpt lat="43.44205" lon="6.60433">
        <ele>107.5</ele>
        <time>2018-09-26T14:40:53Z</time>
      </trkpt>
      <trkpt lat="43.44205" lon="6.60446">
        <ele>106.8</ele>
        <time>2018-09-26T14:41:03Z</time>
      </trkpt>
      <trkpt lat="43.44204" lon="6.60458">
        <ele>105.8</ele>
        <time>2018-09-26T14:41:12Z</time>
      </trkpt>
      <trkpt lat="43.44203" lon="6.60472">
        <ele>104.3</ele>
        <time>2018-09-26T14:41:24Z</time>
      </trkpt>
      <trkpt lat="43.44202" lon="6.60484">
        <ele>104.1</ele>
        <time>2018-09-26T14:41:34Z</time>
      </trkpt>
      <trkpt lat="43.44201" lon="6.60497">
        <ele>103.7</ele>
        <time>2018-09-26T14:41:43Z</time>
      </trkpt>
      <trkpt lat="43.442" lon="6.6051">
        <ele>101.9</ele>
        <time>2018-09-26T14:41:54Z</time>
      </trkpt>
      <trkpt lat="43.44198" lon="6.60523">
        <ele>101.7</ele>
        <time>2018-09-26T14:42:04Z</time>
      </trkpt>
      <trkpt lat="43.44196" lon="6.60535">
        <ele>101.7</ele>
        <time>2018-09-26T14:42:13Z</time>
      </trkpt>
      <trkpt lat="43.44193" lon="6.60547">
        <ele>100.9</ele>
        <time>2018-09-26T14:42:22Z</time>
      </trkpt>
      <trkpt lat="43.44191" lon="6.60561">
        <ele>100.8</ele>
        <time>2018-09-26T14:42:30Z</time>
      </trkpt>
      <trkpt lat="43.44188" lon="6.60574">
        <ele>100.6</ele>
        <time>2018-09-26T14:42:38Z</time>
      </trkpt>
      <trkpt lat="43.44185" lon="6.60586">
        <ele>99.8</ele>
        <time>2018-09-26T14:42:48Z</time>
      </trkpt>
      <trkpt lat="43.44183" lon="6.60599">
        <ele>99.3</ele>
        <time>2018-09-26T14:42:57Z</time>
      </trkpt>
      <trkpt lat="43.44179" lon="6.60611">
        <ele>99.2</ele>
        <time>2018-09-26T14:43:06Z</time>
      </trkpt>
      <trkpt lat="43.44178" lon="6.60624">
        <ele>99</ele>
        <time>2018-09-26T14:43:14Z</time>
      </trkpt>
      <trkpt lat="43.44174" lon="6.60635">
        <ele>98.9</ele>
        <time>2018-09-26T14:43:23Z</time>
      </trkpt>
      <trkpt lat="43.4417" lon="6.60647">
        <ele>99.2</ele>
        <time>2018-09-26T14:43:31Z</time>
      </trkpt>
      <trkpt lat="43.44168" lon="6.6066">
        <ele>99.2</ele>
        <time>2018-09-26T14:43:39Z</time>
      </trkpt>
      <trkpt lat="43.44168" lon="6.60674">
        <ele>99.2</ele>
        <time>2018-09-26T14:43:46Z</time>
      </trkpt>
      <trkpt lat="43.44168" lon="6.60687">
        <ele>98.9</ele>
        <time>2018-09-26T14:43:54Z</time>
      </trkpt>
      <trkpt lat="43.44167" lon="6.607">
        <ele>98.8</ele>
        <time>2018-09-26T14:44:03Z</time>
      </trkpt>
      <trkpt lat="43.44165" lon="6.60713">
        <ele>99.1</ele>
        <time>2018-09-26T14:44:12Z</time>
      </trkpt>
      <trkpt lat="43.44163" lon="6.60726">
        <ele>99.2</ele>
        <time>2018-09-26T14:44:21Z</time>
      </trkpt>
      <trkpt lat="43.44161" lon="6.60739">
        <ele>99</ele>
        <time>2018-09-26T14:44:30Z</time>
      </trkpt>
      <trkpt lat="43.44161" lon="6.60752">
        <ele>99.4</ele>
        <time>2018-09-26T14:44:37Z</time>
      </trkpt>
      <trkpt lat="43.44164" lon="6.60766">
        <ele>99.4</ele>
        <time>2018-09-26T14:44:45Z</time>
      </trkpt>
      <trkpt lat="43.44165" lon="6.60779">
        <ele>99.5</ele>
        <time>2018-09-26T14:44:50Z</time>
      </trkpt>
      <trkpt lat="43.44168" lon="6.60793">
        <ele>99.5</ele>
        <time>2018-09-26T14:44:56Z</time>
      </trkpt>
      <trkpt lat="43.44171" lon="6.60805">
        <ele>99.6</ele>
        <time>2018-09-26T14:45:02Z</time>
      </trkpt>
      <trkpt lat="43.44178" lon="6.60815">
        <ele>100.3</ele>
        <time>2018-09-26T14:45:09Z</time>
      </trkpt>
      <trkpt lat="43.44185" lon="6.60824">
        <ele>100.4</ele>
        <time>2018-09-26T14:45:17Z</time>
      </trkpt>
      <trkpt lat="43.44193" lon="6.60833">
        <ele>99.7</ele>
        <time>2018-09-26T14:45:25Z</time>
      </trkpt>
      <trkpt lat="43.442" lon="6.60842">
        <ele>99</ele>
        <time>2018-09-26T14:45:36Z</time>
      </trkpt>
      <trkpt lat="43.44206" lon="6.60852">
        <ele>99</ele>
        <time>2018-09-26T14:45:52Z</time>
      </trkpt>
      <trkpt lat="43.44213" lon="6.6086">
        <ele>98.6</ele>
        <time>2018-09-26T14:46:30Z</time>
      </trkpt>
      <trkpt lat="43.44221" lon="6.60863">
        <ele>98.4</ele>
        <time>2018-09-26T14:47:23Z</time>
      </trkpt>
      <trkpt lat="43.44228" lon="6.60872">
        <ele>99.2</ele>
        <time>2018-09-26T14:49:09Z</time>
      </trkpt>
      <trkpt lat="43.44236" lon="6.6088">
        <ele>99.7</ele>
        <time>2018-09-26T14:50:11Z</time>
      </trkpt>
      <trkpt lat="43.44242" lon="6.6089">
        <ele>100.7</ele>
        <time>2018-09-26T14:50:22Z</time>
      </trkpt>
      <trkpt lat="43.44246" lon="6.60902">
        <ele>101.3</ele>
        <time>2018-09-26T14:50:33Z</time>
      </trkpt>
      <trkpt lat="43.4425" lon="6.60913">
        <ele>101.4</ele>
        <time>2018-09-26T14:50:45Z</time>
      </trkpt>
      <trkpt lat="43.44254" lon="6.60925">
        <ele>102.3</ele>
        <time>2018-09-26T14:50:57Z</time>
      </trkpt>
      <trkpt lat="43.44256" lon="6.60937">
        <ele>101.8</ele>
        <time>2018-09-26T14:51:08Z</time>
      </trkpt>
      <trkpt lat="43.44259" lon="6.60949">
        <ele>101.8</ele>
        <time>2018-09-26T14:51:16Z</time>
      </trkpt>
      <trkpt lat="43.44259" lon="6.60962">
        <ele>102.1</ele>
        <time>2018-09-26T14:51:27Z</time>
      </trkpt>
      <trkpt lat="43.4426" lon="6.60974">
        <ele>101</ele>
        <time>2018-09-26T14:51:50Z</time>
      </trkpt>
      <trkpt lat="43.44262" lon="6.60986">
        <ele>100.4</ele>
        <time>2018-09-26T14:52:33Z</time>
      </trkpt>
      <trkpt lat="43.44269" lon="6.60995">
        <ele>99.7</ele>
        <time>2018-09-26T14:54:27Z</time>
      </trkpt>
      <trkpt lat="43.44276" lon="6.61003">
        <ele>98.9</ele>
        <time>2018-09-26T14:54:41Z</time>
      </trkpt>
      <trkpt lat="43.4428" lon="6.61016">
        <ele>99</ele>
        <time>2018-09-26T14:54:50Z</time>
      </trkpt>
      <trkpt lat="43.44285" lon="6.61027">
        <ele>99</ele>
        <time>2018-09-26T14:54:59Z</time>
      </trkpt>
      <trkpt lat="43.44289" lon="6.6104">
        <ele>97.2</ele>
        <time>2018-09-26T14:55:13Z</time>
      </trkpt>
      <trkpt lat="43.44292" lon="6.61053">
        <ele>96.6</ele>
        <time>2018-09-26T14:55:22Z</time>
      </trkpt>
      <trkpt lat="43.44297" lon="6.61065">
        <ele>95.9</ele>
        <time>2018-09-26T14:55:30Z</time>
      </trkpt>
      <trkpt lat="43.44304" lon="6.61075">
        <ele>94.2</ele>
        <time>2018-09-26T14:55:42Z</time>
      </trkpt>
      <trkpt lat="43.44311" lon="6.61083">
        <ele>94.9</ele>
        <time>2018-09-26T14:55:56Z</time>
      </trkpt>
      <trkpt lat="43.44319" lon="6.61091">
        <ele>94.2</ele>
        <time>2018-09-26T14:56:08Z</time>
      </trkpt>
      <trkpt lat="43.44324" lon="6.61102">
        <ele>93.4</ele>
        <time>2018-09-26T14:56:20Z</time>
      </trkpt>
      <trkpt lat="43.44327" lon="6.61114">
        <ele>93.7</ele>
        <time>2018-09-26T14:56:29Z</time>
      </trkpt>
      <trkpt lat="43.44328" lon="6.61127">
        <ele>93</ele>
        <time>2018-09-26T14:56:38Z</time>
      </trkpt>
      <trkpt lat="43.44326" lon="6.61139">
        <ele>91.9</ele>
        <time>2018-09-26T14:56:48Z</time>
      </trkpt>
      <trkpt lat="43.44323" lon="6.61152">
        <ele>91.8</ele>
        <time>2018-09-26T14:56:57Z</time>
      </trkpt>
      <trkpt lat="43.44319" lon="6.61165">
        <ele>91.7</ele>
        <time>2018-09-26T14:57:06Z</time>
      </trkpt>
      <trkpt lat="43.44317" lon="6.61177">
        <ele>90.6</ele>
        <time>2018-09-26T14:57:15Z</time>
      </trkpt>
      <trkpt lat="43.44317" lon="6.6119">
        <ele>89.3</ele>
        <time>2018-09-26T14:57:24Z</time>
      </trkpt>
      <trkpt lat="43.4432" lon="6.61202">
        <ele>89.4</ele>
        <time>2018-09-26T14:57:33Z</time>
      </trkpt>
      <trkpt lat="43.44325" lon="6.61213">
        <ele>88.6</ele>
        <time>2018-09-26T14:57:43Z</time>
      </trkpt>
      <trkpt lat="43.44333" lon="6.61221">
        <ele>87.2</ele>
        <time>2018-09-26T14:57:52Z</time>
      </trkpt>
      <trkpt lat="43.44342" lon="6.61224">
        <ele>85.9</ele>
        <time>2018-09-26T14:58:04Z</time>
      </trkpt>
      <trkpt lat="43.44351" lon="6.61227">
        <ele>84.7</ele>
        <time>2018-09-26T14:58:14Z</time>
      </trkpt>
      <trkpt lat="43.4436" lon="6.6123">
        <ele>84.2</ele>
        <time>2018-09-26T14:58:24Z</time>
      </trkpt>
      <trkpt lat="43.4437" lon="6.61231">
        <ele>83.7</ele>
        <time>2018-09-26T14:58:33Z</time>
      </trkpt>
      <trkpt lat="43.44379" lon="6.61235">
        <ele>83.3</ele>
        <time>2018-09-26T14:58:43Z</time>
      </trkpt>
      <trkpt lat="43.44387" lon="6.61244">
        <ele>83</ele>
        <time>2018-09-26T14:58:53Z</time>
      </trkpt>
      <trkpt lat="43.44395" lon="6.61251">
        <ele>81.8</ele>
        <time>2018-09-26T14:59:03Z</time>
      </trkpt>
      <trkpt lat="43.44403" lon="6.61255">
        <ele>80.7</ele>
        <time>2018-09-26T14:59:16Z</time>
      </trkpt>
      <trkpt lat="43.44412" lon="6.61261">
        <ele>80</ele>
        <time>2018-09-26T14:59:24Z</time>
      </trkpt>
      <trkpt lat="43.44417" lon="6.61273">
        <ele>79</ele>
        <time>2018-09-26T14:59:33Z</time>
      </trkpt>
      <trkpt lat="43.44413" lon="6.61284">
        <ele>77.4</ele>
        <time>2018-09-26T14:59:44Z</time>
      </trkpt>
      <trkpt lat="43.44407" lon="6.61294">
        <ele>76</ele>
        <time>2018-09-26T14:59:57Z</time>
      </trkpt>
      <trkpt lat="43.44404" lon="6.61306">
        <ele>75.1</ele>
        <time>2018-09-26T15:00:09Z</time>
      </trkpt>
      <trkpt lat="43.44405" lon="6.61319">
        <ele>74.4</ele>
        <time>2018-09-26T15:00:20Z</time>
      </trkpt>
      <trkpt lat="43.44403" lon="6.61332">
        <ele>72.7</ele>
        <time>2018-09-26T15:00:31Z</time>
      </trkpt>
      <trkpt lat="43.444" lon="6.61344">
        <ele>72.4</ele>
        <time>2018-09-26T15:00:39Z</time>
      </trkpt>
      <trkpt lat="43.44391" lon="6.61349">
        <ele>71.9</ele>
        <time>2018-09-26T15:00:49Z</time>
      </trkpt>
      <trkpt lat="43.44383" lon="6.61343">
        <ele>71.4</ele>
        <time>2018-09-26T15:00:59Z</time>
      </trkpt>
      <trkpt lat="43.44375" lon="6.61336">
        <ele>70.1</ele>
        <time>2018-09-26T15:01:09Z</time>
      </trkpt>
      <trkpt lat="43.44367" lon="6.61331">
        <ele>68.1</ele>
        <time>2018-09-26T15:01:20Z</time>
      </trkpt>
      <trkpt lat="43.44359" lon="6.61338">
        <ele>67.3</ele>
        <time>2018-09-26T15:01:35Z</time>
      </trkpt>
      <trkpt lat="43.44354" lon="6.61348">
        <ele>66.6</ele>
        <time>2018-09-26T15:01:47Z</time>
      </trkpt>
      <trkpt lat="43.44351" lon="6.61361">
        <ele>66</ele>
        <time>2018-09-26T15:01:58Z</time>
      </trkpt>
      <trkpt lat="43.44356" lon="6.61372">
        <ele>64.6</ele>
        <time>2018-09-26T15:02:13Z</time>
      </trkpt>
      <trkpt lat="43.44362" lon="6.61382">
        <ele>63.5</ele>
        <time>2018-09-26T15:03:01Z</time>
      </trkpt>
      <trkpt lat="43.44369" lon="6.6139">
        <ele>63</ele>
        <time>2018-09-26T15:03:15Z</time>
      </trkpt>
      <trkpt lat="43.44378" lon="6.61394">
        <ele>61.8</ele>
        <time>2018-09-26T15:03:34Z</time>
      </trkpt>
      <trkpt lat="43.44387" lon="6.61396">
        <ele>61.4</ele>
        <time>2018-09-26T15:03:45Z</time>
      </trkpt>
      <trkpt lat="43.44397" lon="6.61399">
        <ele>60.3</ele>
        <time>2018-09-26T15:03:55Z</time>
      </trkpt>
      <trkpt lat="43.44405" lon="6.61404">
        <ele>59.8</ele>
        <time>2018-09-26T15:04:04Z</time>
      </trkpt>
      <trkpt lat="43.44414" lon="6.61407">
        <ele>59.5</ele>
        <time>2018-09-26T15:04:14Z</time>
      </trkpt>
      <trkpt lat="43.44423" lon="6.61413">
        <ele>59.3</ele>
        <time>2018-09-26T15:04:24Z</time>
      </trkpt>
      <trkpt lat="43.44431" lon="6.61419">
        <ele>59.6</ele>
        <time>2018-09-26T15:04:35Z</time>
      </trkpt>
      <trkpt lat="43.44437" lon="6.61429">
        <ele>57.6</ele>
        <time>2018-09-26T15:04:49Z</time>
      </trkpt>
      <trkpt lat="43.44438" lon="6.61441">
        <ele>56.1</ele>
        <time>2018-09-26T15:05:05Z</time>
      </trkpt>
      <trkpt lat="43.44434" lon="6.61453">
        <ele>55.1</ele>
        <time>2018-09-26T15:05:17Z</time>
      </trkpt>
      <trkpt lat="43.44429" lon="6.61465">
        <ele>54</ele>
        <time>2018-09-26T15:05:28Z</time>
      </trkpt>
      <trkpt lat="43.44424" lon="6.61476">
        <ele>53.3</ele>
        <time>2018-09-26T15:05:38Z</time>
      </trkpt>
      <trkpt lat="43.44416" lon="6.61485">
        <ele>53.2</ele>
        <time>2018-09-26T15:05:47Z</time>
      </trkpt>
      <trkpt lat="43.44408" lon="6.61492">
        <ele>52</ele>
        <time>2018-09-26T15:05:58Z</time>
      </trkpt>
      <trkpt lat="43.44402" lon="6.61501">
        <ele>50.4</ele>
        <time>2018-09-26T15:06:10Z</time>
      </trkpt>
      <trkpt lat="43.44395" lon="6.61511">
        <ele>49.5</ele>
        <time>2018-09-26T15:06:23Z</time>
      </trkpt>
      <trkpt lat="43.44388" lon="6.61519">
        <ele>48.5</ele>
        <time>2018-09-26T15:06:34Z</time>
      </trkpt>
      <trkpt lat="43.44384" lon="6.61531">
        <ele>47</ele>
        <time>2018-09-26T15:06:45Z</time>
      </trkpt>
      <trkpt lat="43.44382" lon="6.61543">
        <ele>46.3</ele>
        <time>2018-09-26T15:06:57Z</time>
      </trkpt>
      <trkpt lat="43.4438" lon="6.61556">
        <ele>45</ele>
        <time>2018-09-26T15:07:10Z</time>
      </trkpt>
      <trkpt lat="43.4438" lon="6.61569">
        <ele>43.5</ele>
        <time>2018-09-26T15:07:25Z</time>
      </trkpt>
      <trkpt lat="43.44381" lon="6.61582">
        <ele>42.8</ele>
        <time>2018-09-26T15:07:38Z</time>
      </trkpt>
      <trkpt lat="43.44378" lon="6.61595">
        <ele>41</ele>
        <time>2018-09-26T15:07:49Z</time>
      </trkpt>
      <trkpt lat="43.44373" lon="6.61606">
        <ele>39.8</ele>
        <time>2018-09-26T15:07:59Z</time>
      </trkpt>
      <trkpt lat="43.44364" lon="6.61611">
        <ele>38.9</ele>
        <time>2018-09-26T15:08:10Z</time>
      </trkpt>
      <trkpt lat="43.44356" lon="6.61618">
        <ele>37.6</ele>
        <time>2018-09-26T15:08:22Z</time>
      </trkpt>
      <trkpt lat="43.4435" lon="6.61627">
        <ele>36.5</ele>
        <time>2018-09-26T15:09:24Z</time>
      </trkpt>
      <trkpt lat="43.44347" lon="6.61639">
        <ele>35.1</ele>
        <time>2018-09-26T15:09:49Z</time>
      </trkpt>
      <trkpt lat="43.44352" lon="6.61649">
        <ele>33.4</ele>
        <time>2018-09-26T15:10:36Z</time>
      </trkpt>
      <trkpt lat="43.4435" lon="6.61662">
        <ele>31.6</ele>
        <time>2018-09-26T15:10:50Z</time>
      </trkpt>
      <trkpt lat="43.4435" lon="6.61675">
        <ele>29.9</ele>
        <time>2018-09-26T15:11:06Z</time>
      </trkpt>
      <trkpt lat="43.44351" lon="6.61688">
        <ele>28.3</ele>
        <time>2018-09-26T15:11:21Z</time>
      </trkpt>
      <trkpt lat="43.44355" lon="6.617">
        <ele>27.6</ele>
        <time>2018-09-26T15:11:33Z</time>
      </trkpt>
      <trkpt lat="43.44356" lon="6.61713">
        <ele>27.1</ele>
        <time>2018-09-26T15:11:45Z</time>
      </trkpt>
      <trkpt lat="43.44357" lon="6.61726">
        <ele>28.2</ele>
        <time>2018-09-26T15:11:55Z</time>
      </trkpt>
      <trkpt lat="43.44362" lon="6.61737">
        <ele>28.3</ele>
        <time>2018-09-26T15:12:05Z</time>
      </trkpt>
      <trkpt lat="43.44364" lon="6.6175">
        <ele>28</ele>
        <time>2018-09-26T15:12:16Z</time>
      </trkpt>
      <trkpt lat="43.44366" lon="6.61763">
        <ele>28.1</ele>
        <time>2018-09-26T15:12:25Z</time>
      </trkpt>
      <trkpt lat="43.44369" lon="6.61775">
        <ele>27.5</ele>
        <time>2018-09-26T15:12:35Z</time>
      </trkpt>
      <trkpt lat="43.44369" lon="6.61788">
        <ele>27.9</ele>
        <time>2018-09-26T15:12:46Z</time>
      </trkpt>
      <trkpt lat="43.44369" lon="6.61803">
        <ele>28.5</ele>
        <time>2018-09-26T15:12:58Z</time>
      </trkpt>
      <trkpt lat="43.44368" lon="6.61816">
        <ele>29.5</ele>
        <time>2018-09-26T15:13:06Z</time>
      </trkpt>
      <trkpt lat="43.44369" lon="6.6183">
        <ele>29</ele>
        <time>2018-09-26T15:13:13Z</time>
      </trkpt>
      <trkpt lat="43.4437" lon="6.61844">
        <ele>27.8</ele>
        <time>2018-09-26T15:13:21Z</time>
      </trkpt>
      <trkpt lat="43.44369" lon="6.61857">
        <ele>27.2</ele>
        <time>2018-09-26T15:13:29Z</time>
      </trkpt>
      <trkpt lat="43.44368" lon="6.6187">
        <ele>26.7</ele>
        <time>2018-09-26T15:13:38Z</time>
      </trkpt>
      <trkpt lat="43.44369" lon="6.61883">
        <ele>26.9</ele>
        <time>2018-09-26T15:13:49Z</time>
      </trkpt>
      <trkpt lat="43.44371" lon="6.61895">
        <ele>26.6</ele>
        <time>2018-09-26T15:14:00Z</time>
      </trkpt>
      <trkpt lat="43.44372" lon="6.61908">
        <ele>26.4</ele>
        <time>2018-09-26T15:14:18Z</time>
      </trkpt>
      <trkpt lat="43.44368" lon="6.6192">
        <ele>27.2</ele>
        <time>2018-09-26T15:14:45Z</time>
      </trkpt>
      <trkpt lat="43.44373" lon="6.61931">
        <ele>26.9</ele>
        <time>2018-09-26T15:16:41Z</time>
      </trkpt>
      <trkpt lat="43.44378" lon="6.61944">
        <ele>27</ele>
        <time>2018-09-26T15:16:52Z</time>
      </trkpt>
      <trkpt lat="43.44382" lon="6.61955">
        <ele>26.8</ele>
        <time>2018-09-26T15:17:02Z</time>
      </trkpt>
      <trkpt lat="43.44388" lon="6.61966">
        <ele>26.5</ele>
        <time>2018-09-26T15:17:10Z</time>
      </trkpt>
      <trkpt lat="43.44393" lon="6.61977">
        <ele>26.6</ele>
        <time>2018-09-26T15:17:19Z</time>
      </trkpt>
      <trkpt lat="43.44396" lon="6.61989">
        <ele>26.2</ele>
        <time>2018-09-26T15:17:28Z</time>
      </trkpt>
      <trkpt lat="43.444" lon="6.62002">
        <ele>25.9</ele>
        <time>2018-09-26T15:17:37Z</time>
      </trkpt>
      <trkpt lat="43.44407" lon="6.6201">
        <ele>26</ele>
        <time>2018-09-26T15:17:47Z</time>
      </trkpt>
      <trkpt lat="43.44416" lon="6.62017">
        <ele>26.6</ele>
        <time>2018-09-26T15:17:54Z</time>
      </trkpt>
      <trkpt lat="43.44425" lon="6.62019">
        <ele>26.6</ele>
        <time>2018-09-26T15:18:03Z</time>
      </trkpt>
      <trkpt lat="43.44434" lon="6.62018">
        <ele>27.1</ele>
        <time>2018-09-26T15:18:12Z</time>
      </trkpt>
      <trkpt lat="43.44444" lon="6.62019">
        <ele>26.9</ele>
        <time>2018-09-26T15:18:21Z</time>
      </trkpt>
      <trkpt lat="43.44453" lon="6.62017">
        <ele>26.3</ele>
        <time>2018-09-26T15:18:30Z</time>
      </trkpt>
      <trkpt lat="43.44463" lon="6.62016">
        <ele>26.1</ele>
        <time>2018-09-26T15:18:38Z</time>
      </trkpt>
      <trkpt lat="43.44472" lon="6.62018">
        <ele>26.7</ele>
        <time>2018-09-26T15:18:46Z</time>
      </trkpt>
      <trkpt lat="43.44482" lon="6.62021">
        <ele>26.7</ele>
        <time>2018-09-26T15:18:54Z</time>
      </trkpt>
      <trkpt lat="43.44491" lon="6.62025">
        <ele>26.6</ele>
        <time>2018-09-26T15:19:02Z</time>
      </trkpt>
      <trkpt lat="43.445" lon="6.62029">
        <ele>26.4</ele>
        <time>2018-09-26T15:19:09Z</time>
      </trkpt>
      <trkpt lat="43.44509" lon="6.62033">
        <ele>26.3</ele>
        <time>2018-09-26T15:19:16Z</time>
      </trkpt>
      <trkpt lat="43.44518" lon="6.62037">
        <ele>26</ele>
        <time>2018-09-26T15:19:24Z</time>
      </trkpt>
      <trkpt lat="43.44527" lon="6.6204">
        <ele>26.2</ele>
        <time>2018-09-26T15:19:32Z</time>
      </trkpt>
      <trkpt lat="43.44537" lon="6.62042">
        <ele>26.3</ele>
        <time>2018-09-26T15:19:41Z</time>
      </trkpt>
      <trkpt lat="43.44546" lon="6.62046">
        <ele>26</ele>
        <time>2018-09-26T15:19:49Z</time>
      </trkpt>
      <trkpt lat="43.44556" lon="6.62049">
        <ele>26.4</ele>
        <time>2018-09-26T15:19:57Z</time>
      </trkpt>
      <trkpt lat="43.44565" lon="6.62053">
        <ele>26.5</ele>
        <time>2018-09-26T15:20:06Z</time>
      </trkpt>
      <trkpt lat="43.44575" lon="6.62056">
        <ele>26.4</ele>
        <time>2018-09-26T15:20:13Z</time>
      </trkpt>
      <trkpt lat="43.44584" lon="6.62058">
        <ele>25.9</ele>
        <time>2018-09-26T15:20:20Z</time>
      </trkpt>
      <trkpt lat="43.44594" lon="6.62059">
        <ele>25.7</ele>
        <time>2018-09-26T15:20:27Z</time>
      </trkpt>
      <trkpt lat="43.44603" lon="6.62061">
        <ele>25.9</ele>
        <time>2018-09-26T15:20:34Z</time>
      </trkpt>
      <trkpt lat="43.44613" lon="6.62062">
        <ele>26.4</ele>
        <time>2018-09-26T15:20:42Z</time>
      </trkpt>
      <trkpt lat="43.44623" lon="6.62063">
        <ele>26.3</ele>
        <time>2018-09-26T15:20:51Z</time>
      </trkpt>
      <trkpt lat="43.44632" lon="6.62064">
        <ele>26.2</ele>
        <time>2018-09-26T15:20:59Z</time>
      </trkpt>
      <trkpt lat="43.44641" lon="6.62065">
        <ele>26.1</ele>
        <time>2018-09-26T15:21:07Z</time>
      </trkpt>
      <trkpt lat="43.44651" lon="6.62067">
        <ele>26.3</ele>
        <time>2018-09-26T15:21:21Z</time>
      </trkpt>
      <trkpt lat="43.4466" lon="6.62068">
        <ele>26.2</ele>
        <time>2018-09-26T15:21:29Z</time>
      </trkpt>
      <trkpt lat="43.44669" lon="6.62073">
        <ele>25.8</ele>
        <time>2018-09-26T15:21:38Z</time>
      </trkpt>
      <trkpt lat="43.44677" lon="6.62079">
        <ele>26.1</ele>
        <time>2018-09-26T15:21:46Z</time>
      </trkpt>
      <trkpt lat="43.44681" lon="6.62091">
        <ele>26.1</ele>
        <time>2018-09-26T15:21:55Z</time>
      </trkpt>
      <trkpt lat="43.4469" lon="6.62096">
        <ele>25.9</ele>
        <time>2018-09-26T15:22:01Z</time>
      </trkpt>
      <trkpt lat="43.44696" lon="6.62105">
        <ele>25.9</ele>
        <time>2018-09-26T15:22:09Z</time>
      </trkpt>
      <trkpt lat="43.44703" lon="6.62115">
        <ele>26</ele>
        <time>2018-09-26T15:22:17Z</time>
      </trkpt>
      <trkpt lat="43.44709" lon="6.62125">
        <ele>25.7</ele>
        <time>2018-09-26T15:22:24Z</time>
      </trkpt>
      <trkpt lat="43.44716" lon="6.62133">
        <ele>25.8</ele>
        <time>2018-09-26T15:22:31Z</time>
      </trkpt>
      <trkpt lat="43.44724" lon="6.6214">
        <ele>25.9</ele>
        <time>2018-09-26T15:22:38Z</time>
      </trkpt>
      <trkpt lat="43.44732" lon="6.62146">
        <ele>26</ele>
        <time>2018-09-26T15:22:45Z</time>
      </trkpt>
      <trkpt lat="43.44741" lon="6.62152">
        <ele>26.1</ele>
        <time>2018-09-26T15:22:53Z</time>
      </trkpt>
      <trkpt lat="43.44749" lon="6.6216">
        <ele>25.7</ele>
        <time>2018-09-26T15:23:02Z</time>
      </trkpt>
      <trkpt lat="43.44757" lon="6.62166">
        <ele>25.4</ele>
        <time>2018-09-26T15:23:10Z</time>
      </trkpt>
      <trkpt lat="43.44763" lon="6.62157">
        <ele>25.1</ele>
        <time>2018-09-26T15:23:22Z</time>
      </trkpt>
      <trkpt lat="43.44768" lon="6.62146">
        <ele>25.3</ele>
        <time>2018-09-26T15:23:33Z</time>
      </trkpt>
      <trkpt lat="43.44772" lon="6.62134">
        <ele>25.4</ele>
        <time>2018-09-26T15:23:43Z</time>
      </trkpt>
      <trkpt lat="43.44779" lon="6.62124">
        <ele>25.2</ele>
        <time>2018-09-26T15:23:52Z</time>
      </trkpt>
      <trkpt lat="43.44785" lon="6.62113">
        <ele>25.4</ele>
        <time>2018-09-26T15:23:59Z</time>
      </trkpt>
      <trkpt lat="43.44792" lon="6.62103">
        <ele>25.2</ele>
        <time>2018-09-26T15:24:07Z</time>
      </trkpt>
      <trkpt lat="43.44798" lon="6.62092">
        <ele>25.2</ele>
        <time>2018-09-26T15:24:15Z</time>
      </trkpt>
      <trkpt lat="43.44801" lon="6.62081">
        <ele>25.5</ele>
        <time>2018-09-26T15:24:23Z</time>
      </trkpt>
      <trkpt lat="43.44806" lon="6.6207">
        <ele>25.1</ele>
        <time>2018-09-26T15:24:31Z</time>
      </trkpt>
      <trkpt lat="43.44811" lon="6.62059">
        <ele>25</ele>
        <time>2018-09-26T15:24:40Z</time>
      </trkpt>
      <trkpt lat="43.44815" lon="6.62046">
        <ele>24.8</ele>
        <time>2018-09-26T15:24:48Z</time>
      </trkpt>
      <trkpt lat="43.44819" lon="6.62034">
        <ele>25.1</ele>
        <time>2018-09-26T15:24:56Z</time>
      </trkpt>
      <trkpt lat="43.44823" lon="6.62023">
        <ele>25.4</ele>
        <time>2018-09-26T15:25:04Z</time>
      </trkpt>
      <trkpt lat="43.44828" lon="6.62011">
        <ele>25.7</ele>
        <time>2018-09-26T15:25:13Z</time>
      </trkpt>
      <trkpt lat="43.44833" lon="6.62">
        <ele>25.7</ele>
        <time>2018-09-26T15:25:23Z</time>
      </trkpt>
      <trkpt lat="43.44839" lon="6.61989">
        <ele>26</ele>
        <time>2018-09-26T15:25:31Z</time>
      </trkpt>
      <trkpt lat="43.44843" lon="6.61977">
        <ele>26.9</ele>
        <time>2018-09-26T15:25:39Z</time>
      </trkpt>
      <trkpt lat="43.44847" lon="6.61965">
        <ele>26.9</ele>
        <time>2018-09-26T15:25:47Z</time>
      </trkpt>
      <trkpt lat="43.44851" lon="6.61953">
        <ele>26.6</ele>
        <time>2018-09-26T15:25:55Z</time>
      </trkpt>
      <trkpt lat="43.44854" lon="6.61941">
        <ele>26.8</ele>
        <time>2018-09-26T15:26:06Z</time>
      </trkpt>
      <trkpt lat="43.44863" lon="6.61933">
        <ele>26.4</ele>
        <time>2018-09-26T15:26:13Z</time>
      </trkpt>
      <trkpt lat="43.44872" lon="6.61928">
        <ele>26</ele>
        <time>2018-09-26T15:26:20Z</time>
      </trkpt>
      <trkpt lat="43.44879" lon="6.6192">
        <ele>25.9</ele>
        <time>2018-09-26T15:26:27Z</time>
      </trkpt>
      <trkpt lat="43.44882" lon="6.61908">
        <ele>25.7</ele>
        <time>2018-09-26T15:26:36Z</time>
      </trkpt>
      <trkpt lat="43.44884" lon="6.61896">
        <ele>25.5</ele>
        <time>2018-09-26T15:26:44Z</time>
      </trkpt>
      <trkpt lat="43.44887" lon="6.61883">
        <ele>25.4</ele>
        <time>2018-09-26T15:26:53Z</time>
      </trkpt>
      <trkpt lat="43.44893" lon="6.61872">
        <ele>25.4</ele>
        <time>2018-09-26T15:27:02Z</time>
      </trkpt>
      <trkpt lat="43.449" lon="6.61864">
        <ele>25.1</ele>
        <time>2018-09-26T15:27:11Z</time>
      </trkpt>
      <trkpt lat="43.44909" lon="6.61858">
        <ele>25.5</ele>
        <time>2018-09-26T15:27:18Z</time>
      </trkpt>
      <trkpt lat="43.44919" lon="6.61854">
        <ele>25.4</ele>
        <time>2018-09-26T15:27:26Z</time>
      </trkpt>
      <trkpt lat="43.44928" lon="6.61852">
        <ele>25.3</ele>
        <time>2018-09-26T15:27:35Z</time>
      </trkpt>
      <trkpt lat="43.44937" lon="6.6185">
        <ele>25.5</ele>
        <time>2018-09-26T15:27:42Z</time>
      </trkpt>
      <trkpt lat="43.44946" lon="6.61846">
        <ele>25.4</ele>
        <time>2018-09-26T15:27:51Z</time>
      </trkpt>
      <trkpt lat="43.44954" lon="6.6184">
        <ele>25.5</ele>
        <time>2018-09-26T15:28:00Z</time>
      </trkpt>
      <trkpt lat="43.44962" lon="6.61834">
        <ele>25.6</ele>
        <time>2018-09-26T15:28:10Z</time>
      </trkpt>
      <trkpt lat="43.44971" lon="6.61828">
        <ele>25.4</ele>
        <time>2018-09-26T15:28:18Z</time>
      </trkpt>
      <trkpt lat="43.44978" lon="6.6182">
        <ele>25.6</ele>
        <time>2018-09-26T15:28:32Z</time>
      </trkpt>
      <trkpt lat="43.44985" lon="6.61812">
        <ele>25.8</ele>
        <time>2018-09-26T15:28:43Z</time>
      </trkpt>
      <trkpt lat="43.44993" lon="6.61805">
        <ele>25.6</ele>
        <time>2018-09-26T15:28:52Z</time>
      </trkpt>
      <trkpt lat="43.45" lon="6.61797">
        <ele>25.4</ele>
        <time>2018-09-26T15:29:00Z</time>
      </trkpt>
      <trkpt lat="43.45007" lon="6.61788">
        <ele>25.9</ele>
        <time>2018-09-26T15:29:09Z</time>
      </trkpt>
      <trkpt lat="43.45014" lon="6.61778">
        <ele>25.6</ele>
        <time>2018-09-26T15:29:17Z</time>
      </trkpt>
      <trkpt lat="43.45021" lon="6.61768">
        <ele>25.5</ele>
        <time>2018-09-26T15:29:23Z</time>
      </trkpt>
      <trkpt lat="43.45026" lon="6.61757">
        <ele>25.2</ele>
        <time>2018-09-26T15:29:31Z</time>
      </trkpt>
      <trkpt lat="43.45031" lon="6.61746">
        <ele>25.9</ele>
        <time>2018-09-26T15:29:37Z</time>
      </trkpt>
      <trkpt lat="43.45039" lon="6.61739">
        <ele>26</ele>
        <time>2018-09-26T15:29:45Z</time>
      </trkpt>
      <trkpt lat="43.45046" lon="6.6173">
        <ele>26.1</ele>
        <time>2018-09-26T15:29:54Z</time>
      </trkpt>
      <trkpt lat="43.45056" lon="6.61727">
        <ele>25.6</ele>
        <time>2018-09-26T15:30:04Z</time>
      </trkpt>
      <trkpt lat="43.45061" lon="6.61716">
        <ele>26</ele>
        <time>2018-09-26T15:30:17Z</time>
      </trkpt>
      <trkpt lat="43.45067" lon="6.61706">
        <ele>25.6</ele>
        <time>2018-09-26T15:30:25Z</time>
      </trkpt>
      <trkpt lat="43.45074" lon="6.61697">
        <ele>25.7</ele>
        <time>2018-09-26T15:30:38Z</time>
      </trkpt>
      <trkpt lat="43.45083" lon="6.61696">
        <ele>25.2</ele>
        <time>2018-09-26T15:31:18Z</time>
      </trkpt>
      <trkpt lat="43.45077" lon="6.61693">
        <ele>18.5</ele>
        <time>2018-09-26T15:33:08Z</time>
      </trkpt>
    </trkseg>
  </trk>
</gpx>